<?xml version="1.0" encoding="UTF-8" standalone="no" ?>
<gpx xmlns="http://www.topografix.com/GPX/1/1" xmlns:xsi="http://www.w3.org/2001/XMLSchema-instance" xsi:schemaLocation="http://www.topografix.com/GPX/1/1 http://www.topografix.com/GPX/1/1/gpx.xsd" version="1.1" creator="VisuGPX - https://www.visugpx.com">
  <metadata>
    <name>La Randonnée de Mauroux(46) du 07 avril 2013</name>
    <desc><![CDATA[Un tracé très roulant sur la première moitié qui se complique un peu plus sur la seconde.]]></desc>
  </metadata>
  <trk>
    <name><![CDATA[07-AVR-13 11:14:43]]></name>
    <trkseg>
      <trkpt lat="44.45392" lon="1.04752">
        <ele>217.4</ele>
        <time>2013-04-07T06:48:19Z</time>
      </trkpt>
      <trkpt lat="44.4539" lon="1.04752">
        <ele>216.43</ele>
        <time>2013-04-07T06:48:44Z</time>
      </trkpt>
      <trkpt lat="44.4539" lon="1.04753">
        <ele>214.03</ele>
        <time>2013-04-07T06:49:03Z</time>
      </trkpt>
      <trkpt lat="44.4539" lon="1.04751">
        <ele>214.51</ele>
        <time>2013-04-07T06:49:23Z</time>
      </trkpt>
      <trkpt lat="44.45389" lon="1.0475">
        <ele>214.51</ele>
        <time>2013-04-07T06:49:24Z</time>
      </trkpt>
      <trkpt lat="44.45384" lon="1.04738">
        <ele>215.47</ele>
        <time>2013-04-07T06:49:30Z</time>
      </trkpt>
      <trkpt lat="44.45383" lon="1.04737">
        <ele>215.47</ele>
        <time>2013-04-07T06:49:31Z</time>
      </trkpt>
      <trkpt lat="44.45381" lon="1.04738">
        <ele>215.47</ele>
        <time>2013-04-07T06:49:32Z</time>
      </trkpt>
      <trkpt lat="44.4538" lon="1.04739">
        <ele>215.47</ele>
        <time>2013-04-07T06:49:33Z</time>
      </trkpt>
      <trkpt lat="44.45378" lon="1.0474">
        <ele>214.99</ele>
        <time>2013-04-07T06:49:34Z</time>
      </trkpt>
      <trkpt lat="44.45375" lon="1.04741">
        <ele>214.99</ele>
        <time>2013-04-07T06:49:35Z</time>
      </trkpt>
      <trkpt lat="44.45373" lon="1.04742">
        <ele>214.99</ele>
        <time>2013-04-07T06:49:36Z</time>
      </trkpt>
      <trkpt lat="44.4537" lon="1.04743">
        <ele>214.99</ele>
        <time>2013-04-07T06:49:37Z</time>
      </trkpt>
      <trkpt lat="44.45342" lon="1.04755">
        <ele>212.59</ele>
        <time>2013-04-07T06:49:50Z</time>
      </trkpt>
      <trkpt lat="44.45324" lon="1.0476">
        <ele>212.11</ele>
        <time>2013-04-07T06:49:57Z</time>
      </trkpt>
      <trkpt lat="44.4532" lon="1.04763">
        <ele>212.11</ele>
        <time>2013-04-07T06:49:58Z</time>
      </trkpt>
      <trkpt lat="44.45316" lon="1.04765">
        <ele>212.11</ele>
        <time>2013-04-07T06:49:59Z</time>
      </trkpt>
      <trkpt lat="44.45275" lon="1.04783">
        <ele>210.19</ele>
        <time>2013-04-07T06:50:12Z</time>
      </trkpt>
      <trkpt lat="44.45264" lon="1.0479">
        <ele>209.7</ele>
        <time>2013-04-07T06:50:16Z</time>
      </trkpt>
      <trkpt lat="44.45262" lon="1.04788">
        <ele>209.7</ele>
        <time>2013-04-07T06:50:17Z</time>
      </trkpt>
      <trkpt lat="44.45263" lon="1.0478">
        <ele>209.7</ele>
        <time>2013-04-07T06:50:19Z</time>
      </trkpt>
      <trkpt lat="44.45265" lon="1.04775">
        <ele>209.22</ele>
        <time>2013-04-07T06:50:20Z</time>
      </trkpt>
      <trkpt lat="44.45268" lon="1.04771">
        <ele>209.22</ele>
        <time>2013-04-07T06:50:21Z</time>
      </trkpt>
      <trkpt lat="44.45272" lon="1.04767">
        <ele>208.74</ele>
        <time>2013-04-07T06:50:22Z</time>
      </trkpt>
      <trkpt lat="44.45277" lon="1.04765">
        <ele>208.74</ele>
        <time>2013-04-07T06:50:23Z</time>
      </trkpt>
      <trkpt lat="44.45282" lon="1.04763">
        <ele>208.74</ele>
        <time>2013-04-07T06:50:24Z</time>
      </trkpt>
      <trkpt lat="44.45286" lon="1.04762">
        <ele>208.74</ele>
        <time>2013-04-07T06:50:25Z</time>
      </trkpt>
      <trkpt lat="44.4532" lon="1.04742">
        <ele>209.22</ele>
        <time>2013-04-07T06:50:34Z</time>
      </trkpt>
      <trkpt lat="44.4534" lon="1.04716">
        <ele>208.74</ele>
        <time>2013-04-07T06:50:40Z</time>
      </trkpt>
      <trkpt lat="44.45395" lon="1.04617">
        <ele>208.26</ele>
        <time>2013-04-07T06:50:57Z</time>
      </trkpt>
      <trkpt lat="44.45412" lon="1.04577">
        <ele>208.74</ele>
        <time>2013-04-07T06:51:03Z</time>
      </trkpt>
      <trkpt lat="44.45426" lon="1.04545">
        <ele>207.78</ele>
        <time>2013-04-07T06:51:08Z</time>
      </trkpt>
      <trkpt lat="44.4545" lon="1.04528">
        <ele>208.74</ele>
        <time>2013-04-07T06:51:13Z</time>
      </trkpt>
      <trkpt lat="44.45453" lon="1.04523">
        <ele>208.74</ele>
        <time>2013-04-07T06:51:14Z</time>
      </trkpt>
      <trkpt lat="44.45456" lon="1.04517">
        <ele>209.22</ele>
        <time>2013-04-07T06:51:15Z</time>
      </trkpt>
      <trkpt lat="44.45458" lon="1.0451">
        <ele>209.22</ele>
        <time>2013-04-07T06:51:16Z</time>
      </trkpt>
      <trkpt lat="44.4546" lon="1.04504">
        <ele>209.22</ele>
        <time>2013-04-07T06:51:17Z</time>
      </trkpt>
      <trkpt lat="44.45477" lon="1.0445">
        <ele>210.19</ele>
        <time>2013-04-07T06:51:27Z</time>
      </trkpt>
      <trkpt lat="44.4548" lon="1.04449">
        <ele>210.19</ele>
        <time>2013-04-07T06:51:28Z</time>
      </trkpt>
      <trkpt lat="44.45484" lon="1.04449">
        <ele>210.19</ele>
        <time>2013-04-07T06:51:29Z</time>
      </trkpt>
      <trkpt lat="44.455" lon="1.04449">
        <ele>208.74</ele>
        <time>2013-04-07T06:51:33Z</time>
      </trkpt>
      <trkpt lat="44.45536" lon="1.0445">
        <ele>205.86</ele>
        <time>2013-04-07T06:51:40Z</time>
      </trkpt>
      <trkpt lat="44.45571" lon="1.0446">
        <ele>200.57</ele>
        <time>2013-04-07T06:51:48Z</time>
      </trkpt>
      <trkpt lat="44.45574" lon="1.04458">
        <ele>200.09</ele>
        <time>2013-04-07T06:51:49Z</time>
      </trkpt>
      <trkpt lat="44.45576" lon="1.04453">
        <ele>199.61</ele>
        <time>2013-04-07T06:51:50Z</time>
      </trkpt>
      <trkpt lat="44.45578" lon="1.04447">
        <ele>199.61</ele>
        <time>2013-04-07T06:51:51Z</time>
      </trkpt>
      <trkpt lat="44.4558" lon="1.04439">
        <ele>199.13</ele>
        <time>2013-04-07T06:51:52Z</time>
      </trkpt>
      <trkpt lat="44.45603" lon="1.04338">
        <ele>200.57</ele>
        <time>2013-04-07T06:52:05Z</time>
      </trkpt>
      <trkpt lat="44.4563" lon="1.04244">
        <ele>205.86</ele>
        <time>2013-04-07T06:52:20Z</time>
      </trkpt>
      <trkpt lat="44.45633" lon="1.04229">
        <ele>206.34</ele>
        <time>2013-04-07T06:52:23Z</time>
      </trkpt>
      <trkpt lat="44.45631" lon="1.04226">
        <ele>206.34</ele>
        <time>2013-04-07T06:52:24Z</time>
      </trkpt>
      <trkpt lat="44.45628" lon="1.04225">
        <ele>206.34</ele>
        <time>2013-04-07T06:52:25Z</time>
      </trkpt>
      <trkpt lat="44.45624" lon="1.04225">
        <ele>206.34</ele>
        <time>2013-04-07T06:52:26Z</time>
      </trkpt>
      <trkpt lat="44.4562" lon="1.04224">
        <ele>206.34</ele>
        <time>2013-04-07T06:52:27Z</time>
      </trkpt>
      <trkpt lat="44.45617" lon="1.04223">
        <ele>206.34</ele>
        <time>2013-04-07T06:52:28Z</time>
      </trkpt>
      <trkpt lat="44.45556" lon="1.04191">
        <ele>206.34</ele>
        <time>2013-04-07T06:52:46Z</time>
      </trkpt>
      <trkpt lat="44.45536" lon="1.04181">
        <ele>204.9</ele>
        <time>2013-04-07T06:52:50Z</time>
      </trkpt>
      <trkpt lat="44.45483" lon="1.04182">
        <ele>202.49</ele>
        <time>2013-04-07T06:53:00Z</time>
      </trkpt>
      <trkpt lat="44.45453" lon="1.04184">
        <ele>201.53</ele>
        <time>2013-04-07T06:53:11Z</time>
      </trkpt>
      <trkpt lat="44.45397" lon="1.04197">
        <ele>199.13</ele>
        <time>2013-04-07T06:53:20Z</time>
      </trkpt>
      <trkpt lat="44.45326" lon="1.04237">
        <ele>195.77</ele>
        <time>2013-04-07T06:53:30Z</time>
      </trkpt>
      <trkpt lat="44.45321" lon="1.04238">
        <ele>195.77</ele>
        <time>2013-04-07T06:53:31Z</time>
      </trkpt>
      <trkpt lat="44.45317" lon="1.04237">
        <ele>195.28</ele>
        <time>2013-04-07T06:53:32Z</time>
      </trkpt>
      <trkpt lat="44.45312" lon="1.04233">
        <ele>195.28</ele>
        <time>2013-04-07T06:53:33Z</time>
      </trkpt>
      <trkpt lat="44.45309" lon="1.04228">
        <ele>195.28</ele>
        <time>2013-04-07T06:53:34Z</time>
      </trkpt>
      <trkpt lat="44.45305" lon="1.04222">
        <ele>194.8</ele>
        <time>2013-04-07T06:53:35Z</time>
      </trkpt>
      <trkpt lat="44.45302" lon="1.04215">
        <ele>194.8</ele>
        <time>2013-04-07T06:53:36Z</time>
      </trkpt>
      <trkpt lat="44.45299" lon="1.04208">
        <ele>194.32</ele>
        <time>2013-04-07T06:53:37Z</time>
      </trkpt>
      <trkpt lat="44.45292" lon="1.04195">
        <ele>194.32</ele>
        <time>2013-04-07T06:53:39Z</time>
      </trkpt>
      <trkpt lat="44.45255" lon="1.041">
        <ele>195.28</ele>
        <time>2013-04-07T06:53:54Z</time>
      </trkpt>
      <trkpt lat="44.45244" lon="1.04067">
        <ele>197.69</ele>
        <time>2013-04-07T06:54:00Z</time>
      </trkpt>
      <trkpt lat="44.45232" lon="1.03996">
        <ele>203.46</ele>
        <time>2013-04-07T06:54:15Z</time>
      </trkpt>
      <trkpt lat="44.45233" lon="1.03933">
        <ele>207.3</ele>
        <time>2013-04-07T06:54:31Z</time>
      </trkpt>
      <trkpt lat="44.45264" lon="1.03896">
        <ele>212.11</ele>
        <time>2013-04-07T06:54:45Z</time>
      </trkpt>
      <trkpt lat="44.45282" lon="1.03823">
        <ele>213.55</ele>
        <time>2013-04-07T06:55:02Z</time>
      </trkpt>
      <trkpt lat="44.45302" lon="1.03739">
        <ele>213.55</ele>
        <time>2013-04-07T06:55:19Z</time>
      </trkpt>
      <trkpt lat="44.45319" lon="1.03651">
        <ele>213.55</ele>
        <time>2013-04-07T06:55:35Z</time>
      </trkpt>
      <trkpt lat="44.45316" lon="1.03546">
        <ele>211.63</ele>
        <time>2013-04-07T06:55:52Z</time>
      </trkpt>
      <trkpt lat="44.453" lon="1.03498">
        <ele>212.11</ele>
        <time>2013-04-07T06:56:05Z</time>
      </trkpt>
      <trkpt lat="44.45286" lon="1.03449">
        <ele>213.55</ele>
        <time>2013-04-07T06:56:18Z</time>
      </trkpt>
      <trkpt lat="44.45284" lon="1.03377">
        <ele>214.03</ele>
        <time>2013-04-07T06:56:32Z</time>
      </trkpt>
      <trkpt lat="44.45336" lon="1.03306">
        <ele>212.11</ele>
        <time>2013-04-07T06:56:45Z</time>
      </trkpt>
      <trkpt lat="44.45343" lon="1.03295">
        <ele>212.11</ele>
        <time>2013-04-07T06:56:47Z</time>
      </trkpt>
      <trkpt lat="44.45347" lon="1.03291">
        <ele>211.63</ele>
        <time>2013-04-07T06:56:48Z</time>
      </trkpt>
      <trkpt lat="44.45352" lon="1.03287">
        <ele>211.63</ele>
        <time>2013-04-07T06:56:49Z</time>
      </trkpt>
      <trkpt lat="44.45358" lon="1.03284">
        <ele>211.63</ele>
        <time>2013-04-07T06:56:50Z</time>
      </trkpt>
      <trkpt lat="44.45364" lon="1.03281">
        <ele>211.15</ele>
        <time>2013-04-07T06:56:51Z</time>
      </trkpt>
      <trkpt lat="44.4537" lon="1.03279">
        <ele>211.15</ele>
        <time>2013-04-07T06:56:52Z</time>
      </trkpt>
      <trkpt lat="44.45389" lon="1.03272">
        <ele>210.19</ele>
        <time>2013-04-07T06:56:55Z</time>
      </trkpt>
      <trkpt lat="44.45396" lon="1.03268">
        <ele>210.19</ele>
        <time>2013-04-07T06:56:56Z</time>
      </trkpt>
      <trkpt lat="44.45402" lon="1.03264">
        <ele>210.19</ele>
        <time>2013-04-07T06:56:57Z</time>
      </trkpt>
      <trkpt lat="44.45436" lon="1.03227">
        <ele>208.74</ele>
        <time>2013-04-07T06:57:07Z</time>
      </trkpt>
      <trkpt lat="44.4544" lon="1.03223">
        <ele>208.74</ele>
        <time>2013-04-07T06:57:08Z</time>
      </trkpt>
      <trkpt lat="44.45445" lon="1.03219">
        <ele>208.74</ele>
        <time>2013-04-07T06:57:09Z</time>
      </trkpt>
      <trkpt lat="44.45523" lon="1.03133">
        <ele>207.78</ele>
        <time>2013-04-07T06:57:24Z</time>
      </trkpt>
      <trkpt lat="44.45536" lon="1.03114">
        <ele>207.78</ele>
        <time>2013-04-07T06:57:27Z</time>
      </trkpt>
      <trkpt lat="44.45541" lon="1.03108">
        <ele>208.26</ele>
        <time>2013-04-07T06:57:28Z</time>
      </trkpt>
      <trkpt lat="44.45573" lon="1.03078">
        <ele>207.78</ele>
        <time>2013-04-07T06:57:34Z</time>
      </trkpt>
      <trkpt lat="44.45603" lon="1.03052">
        <ele>206.82</ele>
        <time>2013-04-07T06:57:39Z</time>
      </trkpt>
      <trkpt lat="44.45626" lon="1.03026">
        <ele>208.74</ele>
        <time>2013-04-07T06:57:46Z</time>
      </trkpt>
      <trkpt lat="44.45667" lon="1.03015">
        <ele>210.67</ele>
        <time>2013-04-07T06:57:56Z</time>
      </trkpt>
      <trkpt lat="44.45673" lon="1.03014">
        <ele>210.19</ele>
        <time>2013-04-07T06:57:57Z</time>
      </trkpt>
      <trkpt lat="44.45728" lon="1.02991">
        <ele>204.42</ele>
        <time>2013-04-07T06:58:06Z</time>
      </trkpt>
      <trkpt lat="44.45757" lon="1.02994">
        <ele>197.21</ele>
        <time>2013-04-07T06:58:13Z</time>
      </trkpt>
      <trkpt lat="44.45763" lon="1.02973">
        <ele>194.32</ele>
        <time>2013-04-07T06:58:16Z</time>
      </trkpt>
      <trkpt lat="44.45768" lon="1.02922">
        <ele>186.63</ele>
        <time>2013-04-07T06:58:22Z</time>
      </trkpt>
      <trkpt lat="44.45774" lon="1.02892">
        <ele>180.87</ele>
        <time>2013-04-07T06:58:26Z</time>
      </trkpt>
      <trkpt lat="44.45777" lon="1.02877">
        <ele>177.98</ele>
        <time>2013-04-07T06:58:28Z</time>
      </trkpt>
      <trkpt lat="44.45778" lon="1.0287">
        <ele>176.54</ele>
        <time>2013-04-07T06:58:29Z</time>
      </trkpt>
      <trkpt lat="44.45779" lon="1.02864">
        <ele>175.58</ele>
        <time>2013-04-07T06:58:30Z</time>
      </trkpt>
      <trkpt lat="44.45779" lon="1.02858">
        <ele>174.62</ele>
        <time>2013-04-07T06:58:31Z</time>
      </trkpt>
      <trkpt lat="44.45779" lon="1.02853">
        <ele>173.66</ele>
        <time>2013-04-07T06:58:32Z</time>
      </trkpt>
      <trkpt lat="44.45777" lon="1.02851">
        <ele>173.17</ele>
        <time>2013-04-07T06:58:33Z</time>
      </trkpt>
      <trkpt lat="44.45776" lon="1.02849">
        <ele>172.69</ele>
        <time>2013-04-07T06:58:34Z</time>
      </trkpt>
      <trkpt lat="44.45772" lon="1.02841">
        <ele>172.69</ele>
        <time>2013-04-07T06:58:39Z</time>
      </trkpt>
      <trkpt lat="44.45771" lon="1.02839">
        <ele>172.69</ele>
        <time>2013-04-07T06:58:40Z</time>
      </trkpt>
      <trkpt lat="44.45767" lon="1.02832">
        <ele>173.17</ele>
        <time>2013-04-07T06:58:45Z</time>
      </trkpt>
      <trkpt lat="44.45767" lon="1.0283">
        <ele>173.66</ele>
        <time>2013-04-07T06:58:46Z</time>
      </trkpt>
      <trkpt lat="44.45766" lon="1.0283">
        <ele>173.17</ele>
        <time>2013-04-07T06:58:47Z</time>
      </trkpt>
      <trkpt lat="44.45768" lon="1.02837">
        <ele>173.17</ele>
        <time>2013-04-07T06:58:50Z</time>
      </trkpt>
      <trkpt lat="44.45771" lon="1.02842">
        <ele>173.17</ele>
        <time>2013-04-07T06:58:51Z</time>
      </trkpt>
      <trkpt lat="44.45777" lon="1.0285">
        <ele>172.69</ele>
        <time>2013-04-07T06:58:53Z</time>
      </trkpt>
      <trkpt lat="44.45779" lon="1.0285">
        <ele>172.21</ele>
        <time>2013-04-07T06:58:54Z</time>
      </trkpt>
      <trkpt lat="44.45782" lon="1.02845">
        <ele>171.25</ele>
        <time>2013-04-07T06:58:56Z</time>
      </trkpt>
      <trkpt lat="44.45782" lon="1.0284">
        <ele>170.77</ele>
        <time>2013-04-07T06:58:57Z</time>
      </trkpt>
      <trkpt lat="44.45781" lon="1.02833">
        <ele>170.29</ele>
        <time>2013-04-07T06:58:58Z</time>
      </trkpt>
      <trkpt lat="44.45781" lon="1.02787">
        <ele>166.93</ele>
        <time>2013-04-07T06:59:03Z</time>
      </trkpt>
      <trkpt lat="44.45781" lon="1.02765">
        <ele>163.56</ele>
        <time>2013-04-07T06:59:08Z</time>
      </trkpt>
      <trkpt lat="44.45801" lon="1.02771">
        <ele>157.79</ele>
        <time>2013-04-07T06:59:16Z</time>
      </trkpt>
      <trkpt lat="44.45806" lon="1.02768">
        <ele>157.31</ele>
        <time>2013-04-07T06:59:17Z</time>
      </trkpt>
      <trkpt lat="44.4584" lon="1.02741">
        <ele>154.91</ele>
        <time>2013-04-07T06:59:24Z</time>
      </trkpt>
      <trkpt lat="44.45851" lon="1.02732">
        <ele>155.39</ele>
        <time>2013-04-07T06:59:27Z</time>
      </trkpt>
      <trkpt lat="44.45852" lon="1.0272">
        <ele>156.35</ele>
        <time>2013-04-07T06:59:31Z</time>
      </trkpt>
      <trkpt lat="44.45846" lon="1.02707">
        <ele>156.35</ele>
        <time>2013-04-07T06:59:34Z</time>
      </trkpt>
      <trkpt lat="44.45837" lon="1.02684">
        <ele>155.87</ele>
        <time>2013-04-07T06:59:38Z</time>
      </trkpt>
      <trkpt lat="44.45833" lon="1.02665">
        <ele>155.39</ele>
        <time>2013-04-07T06:59:41Z</time>
      </trkpt>
      <trkpt lat="44.45834" lon="1.02581">
        <ele>152.99</ele>
        <time>2013-04-07T06:59:52Z</time>
      </trkpt>
      <trkpt lat="44.45824" lon="1.02519">
        <ele>152.51</ele>
        <time>2013-04-07T07:00:00Z</time>
      </trkpt>
      <trkpt lat="44.45788" lon="1.02436">
        <ele>152.03</ele>
        <time>2013-04-07T07:00:12Z</time>
      </trkpt>
      <trkpt lat="44.45786" lon="1.02428">
        <ele>152.03</ele>
        <time>2013-04-07T07:00:13Z</time>
      </trkpt>
      <trkpt lat="44.45771" lon="1.02327">
        <ele>150.58</ele>
        <time>2013-04-07T07:00:24Z</time>
      </trkpt>
      <trkpt lat="44.45759" lon="1.02292">
        <ele>150.58</ele>
        <time>2013-04-07T07:00:29Z</time>
      </trkpt>
      <trkpt lat="44.45735" lon="1.02288">
        <ele>150.58</ele>
        <time>2013-04-07T07:00:33Z</time>
      </trkpt>
      <trkpt lat="44.45712" lon="1.0228">
        <ele>151.06</ele>
        <time>2013-04-07T07:00:37Z</time>
      </trkpt>
      <trkpt lat="44.45693" lon="1.02266">
        <ele>151.54</ele>
        <time>2013-04-07T07:00:41Z</time>
      </trkpt>
      <trkpt lat="44.4566" lon="1.02258">
        <ele>152.03</ele>
        <time>2013-04-07T07:00:47Z</time>
      </trkpt>
      <trkpt lat="44.45643" lon="1.02252">
        <ele>152.51</ele>
        <time>2013-04-07T07:00:50Z</time>
      </trkpt>
      <trkpt lat="44.4562" lon="1.02244">
        <ele>153.47</ele>
        <time>2013-04-07T07:00:54Z</time>
      </trkpt>
      <trkpt lat="44.45582" lon="1.02214">
        <ele>153.95</ele>
        <time>2013-04-07T07:01:01Z</time>
      </trkpt>
      <trkpt lat="44.45559" lon="1.02185">
        <ele>152.51</ele>
        <time>2013-04-07T07:01:06Z</time>
      </trkpt>
      <trkpt lat="44.45532" lon="1.02156">
        <ele>147.22</ele>
        <time>2013-04-07T07:01:14Z</time>
      </trkpt>
      <trkpt lat="44.45527" lon="1.02159">
        <ele>146.74</ele>
        <time>2013-04-07T07:01:15Z</time>
      </trkpt>
      <trkpt lat="44.4547" lon="1.02195">
        <ele>150.58</ele>
        <time>2013-04-07T07:01:31Z</time>
      </trkpt>
      <trkpt lat="44.45424" lon="1.0223">
        <ele>153.47</ele>
        <time>2013-04-07T07:01:45Z</time>
      </trkpt>
      <trkpt lat="44.45364" lon="1.02288">
        <ele>154.91</ele>
        <time>2013-04-07T07:02:03Z</time>
      </trkpt>
      <trkpt lat="44.45354" lon="1.02298">
        <ele>154.91</ele>
        <time>2013-04-07T07:02:06Z</time>
      </trkpt>
      <trkpt lat="44.45301" lon="1.02324">
        <ele>155.39</ele>
        <time>2013-04-07T07:02:19Z</time>
      </trkpt>
      <trkpt lat="44.45233" lon="1.02353">
        <ele>158.75</ele>
        <time>2013-04-07T07:02:36Z</time>
      </trkpt>
      <trkpt lat="44.45164" lon="1.0238">
        <ele>160.2</ele>
        <time>2013-04-07T07:02:53Z</time>
      </trkpt>
      <trkpt lat="44.45114" lon="1.02451">
        <ele>163.08</ele>
        <time>2013-04-07T07:03:11Z</time>
      </trkpt>
      <trkpt lat="44.45111" lon="1.02453">
        <ele>163.56</ele>
        <time>2013-04-07T07:03:12Z</time>
      </trkpt>
      <trkpt lat="44.45098" lon="1.02443">
        <ele>163.56</ele>
        <time>2013-04-07T07:03:16Z</time>
      </trkpt>
      <trkpt lat="44.45052" lon="1.02392">
        <ele>165.48</ele>
        <time>2013-04-07T07:03:32Z</time>
      </trkpt>
      <trkpt lat="44.45021" lon="1.0235">
        <ele>165.96</ele>
        <time>2013-04-07T07:03:44Z</time>
      </trkpt>
      <trkpt lat="44.44988" lon="1.02306">
        <ele>166.45</ele>
        <time>2013-04-07T07:03:56Z</time>
      </trkpt>
      <trkpt lat="44.44967" lon="1.02279">
        <ele>166.93</ele>
        <time>2013-04-07T07:04:03Z</time>
      </trkpt>
      <trkpt lat="44.44954" lon="1.02263">
        <ele>166.93</ele>
        <time>2013-04-07T07:04:07Z</time>
      </trkpt>
      <trkpt lat="44.44942" lon="1.02238">
        <ele>167.89</ele>
        <time>2013-04-07T07:04:13Z</time>
      </trkpt>
      <trkpt lat="44.44925" lon="1.02242">
        <ele>171.25</ele>
        <time>2013-04-07T07:04:22Z</time>
      </trkpt>
      <trkpt lat="44.4492" lon="1.02247">
        <ele>173.17</ele>
        <time>2013-04-07T07:04:27Z</time>
      </trkpt>
      <trkpt lat="44.44913" lon="1.02254">
        <ele>177.02</ele>
        <time>2013-04-07T07:04:34Z</time>
      </trkpt>
      <trkpt lat="44.44901" lon="1.02255">
        <ele>180.38</ele>
        <time>2013-04-07T07:04:43Z</time>
      </trkpt>
      <trkpt lat="44.44893" lon="1.02261">
        <ele>183.75</ele>
        <time>2013-04-07T07:04:50Z</time>
      </trkpt>
      <trkpt lat="44.44891" lon="1.0226">
        <ele>184.23</ele>
        <time>2013-04-07T07:04:52Z</time>
      </trkpt>
      <trkpt lat="44.44887" lon="1.02262">
        <ele>185.67</ele>
        <time>2013-04-07T07:04:55Z</time>
      </trkpt>
      <trkpt lat="44.4488" lon="1.02267">
        <ele>188.08</ele>
        <time>2013-04-07T07:05:00Z</time>
      </trkpt>
      <trkpt lat="44.44875" lon="1.02284">
        <ele>192.4</ele>
        <time>2013-04-07T07:05:09Z</time>
      </trkpt>
      <trkpt lat="44.44872" lon="1.02308">
        <ele>197.21</ele>
        <time>2013-04-07T07:05:21Z</time>
      </trkpt>
      <trkpt lat="44.44857" lon="1.02332">
        <ele>197.69</ele>
        <time>2013-04-07T07:05:35Z</time>
      </trkpt>
      <trkpt lat="44.44837" lon="1.02352">
        <ele>199.13</ele>
        <time>2013-04-07T07:05:49Z</time>
      </trkpt>
      <trkpt lat="44.44815" lon="1.02367">
        <ele>202.01</ele>
        <time>2013-04-07T07:06:03Z</time>
      </trkpt>
      <trkpt lat="44.44789" lon="1.02379">
        <ele>204.42</ele>
        <time>2013-04-07T07:06:19Z</time>
      </trkpt>
      <trkpt lat="44.44754" lon="1.02395">
        <ele>206.82</ele>
        <time>2013-04-07T07:06:37Z</time>
      </trkpt>
      <trkpt lat="44.44724" lon="1.02419">
        <ele>206.82</ele>
        <time>2013-04-07T07:06:53Z</time>
      </trkpt>
      <trkpt lat="44.44699" lon="1.02442">
        <ele>207.78</ele>
        <time>2013-04-07T07:07:09Z</time>
      </trkpt>
      <trkpt lat="44.44673" lon="1.02472">
        <ele>210.67</ele>
        <time>2013-04-07T07:07:26Z</time>
      </trkpt>
      <trkpt lat="44.44659" lon="1.02509">
        <ele>212.59</ele>
        <time>2013-04-07T07:07:41Z</time>
      </trkpt>
      <trkpt lat="44.44652" lon="1.02554">
        <ele>214.99</ele>
        <time>2013-04-07T07:07:55Z</time>
      </trkpt>
      <trkpt lat="44.44645" lon="1.02601">
        <ele>217.4</ele>
        <time>2013-04-07T07:08:09Z</time>
      </trkpt>
      <trkpt lat="44.44636" lon="1.02649">
        <ele>220.28</ele>
        <time>2013-04-07T07:08:24Z</time>
      </trkpt>
      <trkpt lat="44.44625" lon="1.02697">
        <ele>219.8</ele>
        <time>2013-04-07T07:08:37Z</time>
      </trkpt>
      <trkpt lat="44.44604" lon="1.02749">
        <ele>217.4</ele>
        <time>2013-04-07T07:08:50Z</time>
      </trkpt>
      <trkpt lat="44.44601" lon="1.02754">
        <ele>217.4</ele>
        <time>2013-04-07T07:08:51Z</time>
      </trkpt>
      <trkpt lat="44.44588" lon="1.02802">
        <ele>215.95</ele>
        <time>2013-04-07T07:08:59Z</time>
      </trkpt>
      <trkpt lat="44.44577" lon="1.02865">
        <ele>215.47</ele>
        <time>2013-04-07T07:09:10Z</time>
      </trkpt>
      <trkpt lat="44.44546" lon="1.02933">
        <ele>217.4</ele>
        <time>2013-04-07T07:09:24Z</time>
      </trkpt>
      <trkpt lat="44.44505" lon="1.03009">
        <ele>219.32</ele>
        <time>2013-04-07T07:09:39Z</time>
      </trkpt>
      <trkpt lat="44.44468" lon="1.03085">
        <ele>218.36</ele>
        <time>2013-04-07T07:09:52Z</time>
      </trkpt>
      <trkpt lat="44.44464" lon="1.03087">
        <ele>218.36</ele>
        <time>2013-04-07T07:09:53Z</time>
      </trkpt>
      <trkpt lat="44.4446" lon="1.03088">
        <ele>218.84</ele>
        <time>2013-04-07T07:09:54Z</time>
      </trkpt>
      <trkpt lat="44.44455" lon="1.03087">
        <ele>218.84</ele>
        <time>2013-04-07T07:09:55Z</time>
      </trkpt>
      <trkpt lat="44.44451" lon="1.03085">
        <ele>218.84</ele>
        <time>2013-04-07T07:09:56Z</time>
      </trkpt>
      <trkpt lat="44.44446" lon="1.03084">
        <ele>218.84</ele>
        <time>2013-04-07T07:09:57Z</time>
      </trkpt>
      <trkpt lat="44.44442" lon="1.03085">
        <ele>219.32</ele>
        <time>2013-04-07T07:09:58Z</time>
      </trkpt>
      <trkpt lat="44.44437" lon="1.03089">
        <ele>219.32</ele>
        <time>2013-04-07T07:09:59Z</time>
      </trkpt>
      <trkpt lat="44.4443" lon="1.03098">
        <ele>219.32</ele>
        <time>2013-04-07T07:10:01Z</time>
      </trkpt>
      <trkpt lat="44.44363" lon="1.0316">
        <ele>216.91</ele>
        <time>2013-04-07T07:10:14Z</time>
      </trkpt>
      <trkpt lat="44.44321" lon="1.03191">
        <ele>214.03</ele>
        <time>2013-04-07T07:10:20Z</time>
      </trkpt>
      <trkpt lat="44.44229" lon="1.03249">
        <ele>208.74</ele>
        <time>2013-04-07T07:10:32Z</time>
      </trkpt>
      <trkpt lat="44.44169" lon="1.03262">
        <ele>203.94</ele>
        <time>2013-04-07T07:10:39Z</time>
      </trkpt>
      <trkpt lat="44.44135" lon="1.03257">
        <ele>201.05</ele>
        <time>2013-04-07T07:10:43Z</time>
      </trkpt>
      <trkpt lat="44.44118" lon="1.0325">
        <ele>200.09</ele>
        <time>2013-04-07T07:10:45Z</time>
      </trkpt>
      <trkpt lat="44.44052" lon="1.03262">
        <ele>201.05</ele>
        <time>2013-04-07T07:10:54Z</time>
      </trkpt>
      <trkpt lat="44.44019" lon="1.03235">
        <ele>202.98</ele>
        <time>2013-04-07T07:11:02Z</time>
      </trkpt>
      <trkpt lat="44.43993" lon="1.03203">
        <ele>208.74</ele>
        <time>2013-04-07T07:11:14Z</time>
      </trkpt>
      <trkpt lat="44.4399" lon="1.03204">
        <ele>209.22</ele>
        <time>2013-04-07T07:11:15Z</time>
      </trkpt>
      <trkpt lat="44.43988" lon="1.03204">
        <ele>209.7</ele>
        <time>2013-04-07T07:11:16Z</time>
      </trkpt>
      <trkpt lat="44.43987" lon="1.03205">
        <ele>210.19</ele>
        <time>2013-04-07T07:11:17Z</time>
      </trkpt>
      <trkpt lat="44.43986" lon="1.03206">
        <ele>210.19</ele>
        <time>2013-04-07T07:11:18Z</time>
      </trkpt>
      <trkpt lat="44.43985" lon="1.03208">
        <ele>210.67</ele>
        <time>2013-04-07T07:11:19Z</time>
      </trkpt>
      <trkpt lat="44.43984" lon="1.03209">
        <ele>210.67</ele>
        <time>2013-04-07T07:11:20Z</time>
      </trkpt>
      <trkpt lat="44.43983" lon="1.0321">
        <ele>210.67</ele>
        <time>2013-04-07T07:11:21Z</time>
      </trkpt>
      <trkpt lat="44.43981" lon="1.03211">
        <ele>211.15</ele>
        <time>2013-04-07T07:11:22Z</time>
      </trkpt>
      <trkpt lat="44.4398" lon="1.03212">
        <ele>211.15</ele>
        <time>2013-04-07T07:11:23Z</time>
      </trkpt>
      <trkpt lat="44.43978" lon="1.03213">
        <ele>211.15</ele>
        <time>2013-04-07T07:11:24Z</time>
      </trkpt>
      <trkpt lat="44.43976" lon="1.03215">
        <ele>211.15</ele>
        <time>2013-04-07T07:11:25Z</time>
      </trkpt>
      <trkpt lat="44.43975" lon="1.03216">
        <ele>211.15</ele>
        <time>2013-04-07T07:11:26Z</time>
      </trkpt>
      <trkpt lat="44.43973" lon="1.03218">
        <ele>211.15</ele>
        <time>2013-04-07T07:11:27Z</time>
      </trkpt>
      <trkpt lat="44.43938" lon="1.03245">
        <ele>210.19</ele>
        <time>2013-04-07T07:11:38Z</time>
      </trkpt>
      <trkpt lat="44.43868" lon="1.03302">
        <ele>208.26</ele>
        <time>2013-04-07T07:11:52Z</time>
      </trkpt>
      <trkpt lat="44.43832" lon="1.03342">
        <ele>207.3</ele>
        <time>2013-04-07T07:12:02Z</time>
      </trkpt>
      <trkpt lat="44.43811" lon="1.03379">
        <ele>206.82</ele>
        <time>2013-04-07T07:12:14Z</time>
      </trkpt>
      <trkpt lat="44.43782" lon="1.03429">
        <ele>212.11</ele>
        <time>2013-04-07T07:12:29Z</time>
      </trkpt>
      <trkpt lat="44.43746" lon="1.03485">
        <ele>217.4</ele>
        <time>2013-04-07T07:12:44Z</time>
      </trkpt>
      <trkpt lat="44.43702" lon="1.03537">
        <ele>221.24</ele>
        <time>2013-04-07T07:12:59Z</time>
      </trkpt>
      <trkpt lat="44.43655" lon="1.03573">
        <ele>222.2</ele>
        <time>2013-04-07T07:13:14Z</time>
      </trkpt>
      <trkpt lat="44.4361" lon="1.0361">
        <ele>221.72</ele>
        <time>2013-04-07T07:13:28Z</time>
      </trkpt>
      <trkpt lat="44.43606" lon="1.03659">
        <ele>220.28</ele>
        <time>2013-04-07T07:13:37Z</time>
      </trkpt>
      <trkpt lat="44.43606" lon="1.03674">
        <ele>219.32</ele>
        <time>2013-04-07T07:13:39Z</time>
      </trkpt>
      <trkpt lat="44.43605" lon="1.03682">
        <ele>218.84</ele>
        <time>2013-04-07T07:13:40Z</time>
      </trkpt>
      <trkpt lat="44.43603" lon="1.03688">
        <ele>218.84</ele>
        <time>2013-04-07T07:13:41Z</time>
      </trkpt>
      <trkpt lat="44.436" lon="1.03694">
        <ele>218.36</ele>
        <time>2013-04-07T07:13:42Z</time>
      </trkpt>
      <trkpt lat="44.43597" lon="1.03699">
        <ele>217.88</ele>
        <time>2013-04-07T07:13:43Z</time>
      </trkpt>
      <trkpt lat="44.43555" lon="1.03793">
        <ele>215.95</ele>
        <time>2013-04-07T07:13:59Z</time>
      </trkpt>
      <trkpt lat="44.43552" lon="1.03798">
        <ele>215.95</ele>
        <time>2013-04-07T07:14:00Z</time>
      </trkpt>
      <trkpt lat="44.43549" lon="1.03803">
        <ele>215.95</ele>
        <time>2013-04-07T07:14:01Z</time>
      </trkpt>
      <trkpt lat="44.43545" lon="1.03807">
        <ele>216.43</ele>
        <time>2013-04-07T07:14:02Z</time>
      </trkpt>
      <trkpt lat="44.43541" lon="1.0381">
        <ele>216.43</ele>
        <time>2013-04-07T07:14:03Z</time>
      </trkpt>
      <trkpt lat="44.43537" lon="1.03813">
        <ele>216.43</ele>
        <time>2013-04-07T07:14:04Z</time>
      </trkpt>
      <trkpt lat="44.43532" lon="1.03816">
        <ele>216.91</ele>
        <time>2013-04-07T07:14:05Z</time>
      </trkpt>
      <trkpt lat="44.43465" lon="1.0385">
        <ele>219.8</ele>
        <time>2013-04-07T07:14:20Z</time>
      </trkpt>
      <trkpt lat="44.43449" lon="1.03864">
        <ele>220.28</ele>
        <time>2013-04-07T07:14:24Z</time>
      </trkpt>
      <trkpt lat="44.43439" lon="1.03878">
        <ele>220.76</ele>
        <time>2013-04-07T07:14:27Z</time>
      </trkpt>
      <trkpt lat="44.4342" lon="1.03864">
        <ele>222.2</ele>
        <time>2013-04-07T07:14:34Z</time>
      </trkpt>
      <trkpt lat="44.43408" lon="1.03858">
        <ele>223.16</ele>
        <time>2013-04-07T07:14:38Z</time>
      </trkpt>
      <trkpt lat="44.43352" lon="1.03882">
        <ele>223.64</ele>
        <time>2013-04-07T07:14:53Z</time>
      </trkpt>
      <trkpt lat="44.43352" lon="1.03915">
        <ele>222.68</ele>
        <time>2013-04-07T07:14:59Z</time>
      </trkpt>
      <trkpt lat="44.43361" lon="1.03948">
        <ele>222.2</ele>
        <time>2013-04-07T07:15:04Z</time>
      </trkpt>
      <trkpt lat="44.43379" lon="1.04017">
        <ele>219.8</ele>
        <time>2013-04-07T07:15:13Z</time>
      </trkpt>
      <trkpt lat="44.43408" lon="1.04076">
        <ele>221.24</ele>
        <time>2013-04-07T07:15:22Z</time>
      </trkpt>
      <trkpt lat="44.43412" lon="1.04087">
        <ele>221.72</ele>
        <time>2013-04-07T07:15:24Z</time>
      </trkpt>
      <trkpt lat="44.43412" lon="1.04092">
        <ele>222.2</ele>
        <time>2013-04-07T07:15:25Z</time>
      </trkpt>
      <trkpt lat="44.43411" lon="1.04096">
        <ele>222.68</ele>
        <time>2013-04-07T07:15:26Z</time>
      </trkpt>
      <trkpt lat="44.43409" lon="1.04099">
        <ele>222.68</ele>
        <time>2013-04-07T07:15:27Z</time>
      </trkpt>
      <trkpt lat="44.43407" lon="1.04101">
        <ele>223.16</ele>
        <time>2013-04-07T07:15:28Z</time>
      </trkpt>
      <trkpt lat="44.43405" lon="1.04103">
        <ele>223.16</ele>
        <time>2013-04-07T07:15:29Z</time>
      </trkpt>
      <trkpt lat="44.43402" lon="1.04104">
        <ele>223.16</ele>
        <time>2013-04-07T07:15:30Z</time>
      </trkpt>
      <trkpt lat="44.43362" lon="1.04133">
        <ele>220.76</ele>
        <time>2013-04-07T07:15:42Z</time>
      </trkpt>
      <trkpt lat="44.43351" lon="1.0414">
        <ele>220.76</ele>
        <time>2013-04-07T07:15:45Z</time>
      </trkpt>
      <trkpt lat="44.43347" lon="1.04143">
        <ele>220.76</ele>
        <time>2013-04-07T07:15:46Z</time>
      </trkpt>
      <trkpt lat="44.43317" lon="1.04163">
        <ele>222.68</ele>
        <time>2013-04-07T07:15:54Z</time>
      </trkpt>
      <trkpt lat="44.43314" lon="1.04167">
        <ele>223.16</ele>
        <time>2013-04-07T07:15:55Z</time>
      </trkpt>
      <trkpt lat="44.43311" lon="1.04172">
        <ele>223.64</ele>
        <time>2013-04-07T07:15:56Z</time>
      </trkpt>
      <trkpt lat="44.43309" lon="1.04176">
        <ele>224.12</ele>
        <time>2013-04-07T07:15:57Z</time>
      </trkpt>
      <trkpt lat="44.43307" lon="1.04181">
        <ele>224.61</ele>
        <time>2013-04-07T07:15:58Z</time>
      </trkpt>
      <trkpt lat="44.43306" lon="1.04186">
        <ele>225.09</ele>
        <time>2013-04-07T07:15:59Z</time>
      </trkpt>
      <trkpt lat="44.43306" lon="1.04191">
        <ele>225.57</ele>
        <time>2013-04-07T07:16:00Z</time>
      </trkpt>
      <trkpt lat="44.43306" lon="1.04196">
        <ele>225.57</ele>
        <time>2013-04-07T07:16:01Z</time>
      </trkpt>
      <trkpt lat="44.43307" lon="1.04202">
        <ele>226.05</ele>
        <time>2013-04-07T07:16:02Z</time>
      </trkpt>
      <trkpt lat="44.43306" lon="1.04207">
        <ele>226.53</ele>
        <time>2013-04-07T07:16:03Z</time>
      </trkpt>
      <trkpt lat="44.43304" lon="1.04211">
        <ele>226.53</ele>
        <time>2013-04-07T07:16:04Z</time>
      </trkpt>
      <trkpt lat="44.43303" lon="1.04216">
        <ele>227.01</ele>
        <time>2013-04-07T07:16:05Z</time>
      </trkpt>
      <trkpt lat="44.43274" lon="1.04258">
        <ele>230.37</ele>
        <time>2013-04-07T07:16:16Z</time>
      </trkpt>
      <trkpt lat="44.4327" lon="1.0426">
        <ele>230.37</ele>
        <time>2013-04-07T07:16:17Z</time>
      </trkpt>
      <trkpt lat="44.43266" lon="1.04263">
        <ele>230.85</ele>
        <time>2013-04-07T07:16:18Z</time>
      </trkpt>
      <trkpt lat="44.43203" lon="1.04314">
        <ele>234.22</ele>
        <time>2013-04-07T07:16:37Z</time>
      </trkpt>
      <trkpt lat="44.43156" lon="1.04352">
        <ele>237.58</ele>
        <time>2013-04-07T07:16:52Z</time>
      </trkpt>
      <trkpt lat="44.43108" lon="1.04416">
        <ele>239.02</ele>
        <time>2013-04-07T07:17:09Z</time>
      </trkpt>
      <trkpt lat="44.431" lon="1.04435">
        <ele>238.54</ele>
        <time>2013-04-07T07:17:13Z</time>
      </trkpt>
      <trkpt lat="44.431" lon="1.04441">
        <ele>238.54</ele>
        <time>2013-04-07T07:17:14Z</time>
      </trkpt>
      <trkpt lat="44.43099" lon="1.04447">
        <ele>238.06</ele>
        <time>2013-04-07T07:17:15Z</time>
      </trkpt>
      <trkpt lat="44.43099" lon="1.04453">
        <ele>238.06</ele>
        <time>2013-04-07T07:17:16Z</time>
      </trkpt>
      <trkpt lat="44.43098" lon="1.04459">
        <ele>237.58</ele>
        <time>2013-04-07T07:17:17Z</time>
      </trkpt>
      <trkpt lat="44.43096" lon="1.04465">
        <ele>237.58</ele>
        <time>2013-04-07T07:17:18Z</time>
      </trkpt>
      <trkpt lat="44.43094" lon="1.04471">
        <ele>237.1</ele>
        <time>2013-04-07T07:17:19Z</time>
      </trkpt>
      <trkpt lat="44.43091" lon="1.04476">
        <ele>237.1</ele>
        <time>2013-04-07T07:17:20Z</time>
      </trkpt>
      <trkpt lat="44.43069" lon="1.04537">
        <ele>240.47</ele>
        <time>2013-04-07T07:17:33Z</time>
      </trkpt>
      <trkpt lat="44.43051" lon="1.04598">
        <ele>240.95</ele>
        <time>2013-04-07T07:17:47Z</time>
      </trkpt>
      <trkpt lat="44.43044" lon="1.04611">
        <ele>240.47</ele>
        <time>2013-04-07T07:17:51Z</time>
      </trkpt>
      <trkpt lat="44.43044" lon="1.04615">
        <ele>240.47</ele>
        <time>2013-04-07T07:17:52Z</time>
      </trkpt>
      <trkpt lat="44.43045" lon="1.04618">
        <ele>240.47</ele>
        <time>2013-04-07T07:17:53Z</time>
      </trkpt>
      <trkpt lat="44.43046" lon="1.04621">
        <ele>239.99</ele>
        <time>2013-04-07T07:17:54Z</time>
      </trkpt>
      <trkpt lat="44.43048" lon="1.04625">
        <ele>239.99</ele>
        <time>2013-04-07T07:17:55Z</time>
      </trkpt>
      <trkpt lat="44.43051" lon="1.04629">
        <ele>239.51</ele>
        <time>2013-04-07T07:17:56Z</time>
      </trkpt>
      <trkpt lat="44.43053" lon="1.04635">
        <ele>239.02</ele>
        <time>2013-04-07T07:17:57Z</time>
      </trkpt>
      <trkpt lat="44.43088" lon="1.04694">
        <ele>234.22</ele>
        <time>2013-04-07T07:18:05Z</time>
      </trkpt>
      <trkpt lat="44.43089" lon="1.047">
        <ele>233.74</ele>
        <time>2013-04-07T07:18:06Z</time>
      </trkpt>
      <trkpt lat="44.43089" lon="1.04706">
        <ele>233.26</ele>
        <time>2013-04-07T07:18:07Z</time>
      </trkpt>
      <trkpt lat="44.43087" lon="1.04711">
        <ele>232.78</ele>
        <time>2013-04-07T07:18:08Z</time>
      </trkpt>
      <trkpt lat="44.43084" lon="1.04715">
        <ele>232.78</ele>
        <time>2013-04-07T07:18:09Z</time>
      </trkpt>
      <trkpt lat="44.43074" lon="1.04719">
        <ele>232.3</ele>
        <time>2013-04-07T07:18:11Z</time>
      </trkpt>
      <trkpt lat="44.43054" lon="1.04725">
        <ele>231.81</ele>
        <time>2013-04-07T07:18:15Z</time>
      </trkpt>
      <trkpt lat="44.43025" lon="1.04755">
        <ele>231.33</ele>
        <time>2013-04-07T07:18:22Z</time>
      </trkpt>
      <trkpt lat="44.43002" lon="1.04799">
        <ele>231.81</ele>
        <time>2013-04-07T07:18:30Z</time>
      </trkpt>
      <trkpt lat="44.42982" lon="1.04824">
        <ele>232.78</ele>
        <time>2013-04-07T07:18:36Z</time>
      </trkpt>
      <trkpt lat="44.4297" lon="1.04842">
        <ele>233.26</ele>
        <time>2013-04-07T07:18:40Z</time>
      </trkpt>
      <trkpt lat="44.4292" lon="1.04895">
        <ele>237.58</ele>
        <time>2013-04-07T07:18:57Z</time>
      </trkpt>
      <trkpt lat="44.42868" lon="1.04929">
        <ele>238.54</ele>
        <time>2013-04-07T07:19:13Z</time>
      </trkpt>
      <trkpt lat="44.42824" lon="1.0494">
        <ele>239.99</ele>
        <time>2013-04-07T07:19:26Z</time>
      </trkpt>
      <trkpt lat="44.42786" lon="1.04951">
        <ele>243.35</ele>
        <time>2013-04-07T07:19:40Z</time>
      </trkpt>
      <trkpt lat="44.42744" lon="1.04956">
        <ele>242.39</ele>
        <time>2013-04-07T07:19:54Z</time>
      </trkpt>
      <trkpt lat="44.42686" lon="1.04942">
        <ele>242.39</ele>
        <time>2013-04-07T07:20:11Z</time>
      </trkpt>
      <trkpt lat="44.42632" lon="1.04929">
        <ele>246.72</ele>
        <time>2013-04-07T07:20:28Z</time>
      </trkpt>
      <trkpt lat="44.42581" lon="1.04917">
        <ele>249.12</ele>
        <time>2013-04-07T07:20:43Z</time>
      </trkpt>
      <trkpt lat="44.42564" lon="1.04916">
        <ele>249.6</ele>
        <time>2013-04-07T07:20:47Z</time>
      </trkpt>
      <trkpt lat="44.4256" lon="1.04916">
        <ele>249.6</ele>
        <time>2013-04-07T07:20:48Z</time>
      </trkpt>
      <trkpt lat="44.42539" lon="1.04913">
        <ele>249.12</ele>
        <time>2013-04-07T07:20:53Z</time>
      </trkpt>
      <trkpt lat="44.42517" lon="1.04914">
        <ele>248.64</ele>
        <time>2013-04-07T07:20:59Z</time>
      </trkpt>
      <trkpt lat="44.42515" lon="1.04916">
        <ele>248.64</ele>
        <time>2013-04-07T07:21:00Z</time>
      </trkpt>
      <trkpt lat="44.42513" lon="1.04919">
        <ele>248.64</ele>
        <time>2013-04-07T07:21:01Z</time>
      </trkpt>
      <trkpt lat="44.42513" lon="1.04923">
        <ele>248.64</ele>
        <time>2013-04-07T07:21:02Z</time>
      </trkpt>
      <trkpt lat="44.42513" lon="1.04928">
        <ele>248.64</ele>
        <time>2013-04-07T07:21:03Z</time>
      </trkpt>
      <trkpt lat="44.42514" lon="1.04933">
        <ele>248.64</ele>
        <time>2013-04-07T07:21:04Z</time>
      </trkpt>
      <trkpt lat="44.42515" lon="1.04939">
        <ele>248.64</ele>
        <time>2013-04-07T07:21:05Z</time>
      </trkpt>
      <trkpt lat="44.42515" lon="1.04945">
        <ele>248.16</ele>
        <time>2013-04-07T07:21:06Z</time>
      </trkpt>
      <trkpt lat="44.42516" lon="1.04951">
        <ele>248.16</ele>
        <time>2013-04-07T07:21:07Z</time>
      </trkpt>
      <trkpt lat="44.42517" lon="1.04957">
        <ele>247.68</ele>
        <time>2013-04-07T07:21:08Z</time>
      </trkpt>
      <trkpt lat="44.42517" lon="1.04964">
        <ele>247.2</ele>
        <time>2013-04-07T07:21:09Z</time>
      </trkpt>
      <trkpt lat="44.42518" lon="1.05034">
        <ele>245.75</ele>
        <time>2013-04-07T07:21:19Z</time>
      </trkpt>
      <trkpt lat="44.4252" lon="1.05047">
        <ele>245.75</ele>
        <time>2013-04-07T07:21:21Z</time>
      </trkpt>
      <trkpt lat="44.42522" lon="1.05053">
        <ele>245.75</ele>
        <time>2013-04-07T07:21:22Z</time>
      </trkpt>
      <trkpt lat="44.42525" lon="1.05058">
        <ele>245.75</ele>
        <time>2013-04-07T07:21:23Z</time>
      </trkpt>
      <trkpt lat="44.42528" lon="1.05063">
        <ele>245.75</ele>
        <time>2013-04-07T07:21:24Z</time>
      </trkpt>
      <trkpt lat="44.42531" lon="1.05067">
        <ele>246.23</ele>
        <time>2013-04-07T07:21:25Z</time>
      </trkpt>
      <trkpt lat="44.42559" lon="1.05102">
        <ele>248.16</ele>
        <time>2013-04-07T07:21:34Z</time>
      </trkpt>
      <trkpt lat="44.42599" lon="1.05162">
        <ele>250.56</ele>
        <time>2013-04-07T07:21:49Z</time>
      </trkpt>
      <trkpt lat="44.4261" lon="1.05204">
        <ele>248.64</ele>
        <time>2013-04-07T07:21:57Z</time>
      </trkpt>
      <trkpt lat="44.42631" lon="1.05258">
        <ele>245.27</ele>
        <time>2013-04-07T07:22:04Z</time>
      </trkpt>
      <trkpt lat="44.42637" lon="1.05266">
        <ele>244.79</ele>
        <time>2013-04-07T07:22:05Z</time>
      </trkpt>
      <trkpt lat="44.42644" lon="1.05275">
        <ele>244.31</ele>
        <time>2013-04-07T07:22:06Z</time>
      </trkpt>
      <trkpt lat="44.4265" lon="1.05284">
        <ele>243.35</ele>
        <time>2013-04-07T07:22:07Z</time>
      </trkpt>
      <trkpt lat="44.42657" lon="1.05294">
        <ele>242.87</ele>
        <time>2013-04-07T07:22:08Z</time>
      </trkpt>
      <trkpt lat="44.42719" lon="1.05393">
        <ele>238.54</ele>
        <time>2013-04-07T07:22:18Z</time>
      </trkpt>
      <trkpt lat="44.42722" lon="1.05403">
        <ele>239.02</ele>
        <time>2013-04-07T07:22:19Z</time>
      </trkpt>
      <trkpt lat="44.42724" lon="1.05413">
        <ele>239.02</ele>
        <time>2013-04-07T07:22:20Z</time>
      </trkpt>
      <trkpt lat="44.42741" lon="1.05494">
        <ele>239.51</ele>
        <time>2013-04-07T07:22:31Z</time>
      </trkpt>
      <trkpt lat="44.42753" lon="1.05554">
        <ele>238.54</ele>
        <time>2013-04-07T07:22:44Z</time>
      </trkpt>
      <trkpt lat="44.4277" lon="1.05663">
        <ele>239.02</ele>
        <time>2013-04-07T07:23:01Z</time>
      </trkpt>
      <trkpt lat="44.42787" lon="1.05738">
        <ele>239.99</ele>
        <time>2013-04-07T07:23:14Z</time>
      </trkpt>
      <trkpt lat="44.42785" lon="1.05741">
        <ele>239.51</ele>
        <time>2013-04-07T07:23:15Z</time>
      </trkpt>
      <trkpt lat="44.42773" lon="1.05759">
        <ele>239.51</ele>
        <time>2013-04-07T07:23:20Z</time>
      </trkpt>
      <trkpt lat="44.42771" lon="1.05778">
        <ele>239.51</ele>
        <time>2013-04-07T07:23:23Z</time>
      </trkpt>
      <trkpt lat="44.42763" lon="1.05804">
        <ele>239.51</ele>
        <time>2013-04-07T07:23:27Z</time>
      </trkpt>
      <trkpt lat="44.42757" lon="1.05816">
        <ele>239.51</ele>
        <time>2013-04-07T07:23:29Z</time>
      </trkpt>
      <trkpt lat="44.42743" lon="1.05908">
        <ele>241.91</ele>
        <time>2013-04-07T07:23:43Z</time>
      </trkpt>
      <trkpt lat="44.42729" lon="1.05991">
        <ele>243.35</ele>
        <time>2013-04-07T07:23:58Z</time>
      </trkpt>
      <trkpt lat="44.42711" lon="1.06062">
        <ele>245.75</ele>
        <time>2013-04-07T07:24:11Z</time>
      </trkpt>
      <trkpt lat="44.42704" lon="1.06084">
        <ele>246.23</ele>
        <time>2013-04-07T07:24:15Z</time>
      </trkpt>
      <trkpt lat="44.42694" lon="1.06112">
        <ele>247.2</ele>
        <time>2013-04-07T07:24:20Z</time>
      </trkpt>
      <trkpt lat="44.42656" lon="1.06212">
        <ele>250.08</ele>
        <time>2013-04-07T07:24:37Z</time>
      </trkpt>
      <trkpt lat="44.42636" lon="1.06285">
        <ele>249.6</ele>
        <time>2013-04-07T07:24:51Z</time>
      </trkpt>
      <trkpt lat="44.42635" lon="1.06304">
        <ele>248.16</ele>
        <time>2013-04-07T07:24:54Z</time>
      </trkpt>
      <trkpt lat="44.42635" lon="1.06326">
        <ele>246.23</ele>
        <time>2013-04-07T07:24:57Z</time>
      </trkpt>
      <trkpt lat="44.42629" lon="1.06406">
        <ele>241.43</ele>
        <time>2013-04-07T07:25:05Z</time>
      </trkpt>
      <trkpt lat="44.42614" lon="1.06499">
        <ele>241.43</ele>
        <time>2013-04-07T07:25:15Z</time>
      </trkpt>
      <trkpt lat="44.42604" lon="1.06572">
        <ele>242.39</ele>
        <time>2013-04-07T07:25:24Z</time>
      </trkpt>
      <trkpt lat="44.42602" lon="1.06598">
        <ele>242.87</ele>
        <time>2013-04-07T07:25:28Z</time>
      </trkpt>
      <trkpt lat="44.42594" lon="1.0661">
        <ele>242.87</ele>
        <time>2013-04-07T07:25:31Z</time>
      </trkpt>
      <trkpt lat="44.42587" lon="1.06633">
        <ele>242.87</ele>
        <time>2013-04-07T07:25:35Z</time>
      </trkpt>
      <trkpt lat="44.42581" lon="1.06659">
        <ele>243.35</ele>
        <time>2013-04-07T07:25:39Z</time>
      </trkpt>
      <trkpt lat="44.4258" lon="1.06679">
        <ele>243.83</ele>
        <time>2013-04-07T07:25:42Z</time>
      </trkpt>
      <trkpt lat="44.42583" lon="1.06725">
        <ele>245.27</ele>
        <time>2013-04-07T07:25:50Z</time>
      </trkpt>
      <trkpt lat="44.42543" lon="1.06803">
        <ele>248.64</ele>
        <time>2013-04-07T07:26:08Z</time>
      </trkpt>
      <trkpt lat="44.42513" lon="1.06859">
        <ele>252</ele>
        <time>2013-04-07T07:26:21Z</time>
      </trkpt>
      <trkpt lat="44.42508" lon="1.06919">
        <ele>256.33</ele>
        <time>2013-04-07T07:26:36Z</time>
      </trkpt>
      <trkpt lat="44.4251" lon="1.06964">
        <ele>260.65</ele>
        <time>2013-04-07T07:26:49Z</time>
      </trkpt>
      <trkpt lat="44.42519" lon="1.06968">
        <ele>262.1</ele>
        <time>2013-04-07T07:26:54Z</time>
      </trkpt>
      <trkpt lat="44.42523" lon="1.06969">
        <ele>262.1</ele>
        <time>2013-04-07T07:26:56Z</time>
      </trkpt>
      <trkpt lat="44.42528" lon="1.06983">
        <ele>263.54</ele>
        <time>2013-04-07T07:27:02Z</time>
      </trkpt>
      <trkpt lat="44.42524" lon="1.07017">
        <ele>264.5</ele>
        <time>2013-04-07T07:27:14Z</time>
      </trkpt>
      <trkpt lat="44.42528" lon="1.07078">
        <ele>265.46</ele>
        <time>2013-04-07T07:27:30Z</time>
      </trkpt>
      <trkpt lat="44.42535" lon="1.07135">
        <ele>262.1</ele>
        <time>2013-04-07T07:27:39Z</time>
      </trkpt>
      <trkpt lat="44.42536" lon="1.07142">
        <ele>261.14</ele>
        <time>2013-04-07T07:27:40Z</time>
      </trkpt>
      <trkpt lat="44.42536" lon="1.07188">
        <ele>257.77</ele>
        <time>2013-04-07T07:27:47Z</time>
      </trkpt>
      <trkpt lat="44.42521" lon="1.07198">
        <ele>257.29</ele>
        <time>2013-04-07T07:27:51Z</time>
      </trkpt>
      <trkpt lat="44.42456" lon="1.07198">
        <ele>254.89</ele>
        <time>2013-04-07T07:28:07Z</time>
      </trkpt>
      <trkpt lat="44.42417" lon="1.07195">
        <ele>255.37</ele>
        <time>2013-04-07T07:28:21Z</time>
      </trkpt>
      <trkpt lat="44.42382" lon="1.07193">
        <ele>256.81</ele>
        <time>2013-04-07T07:28:32Z</time>
      </trkpt>
      <trkpt lat="44.42377" lon="1.07195">
        <ele>256.33</ele>
        <time>2013-04-07T07:28:45Z</time>
      </trkpt>
      <trkpt lat="44.42376" lon="1.07194">
        <ele>255.85</ele>
        <time>2013-04-07T07:28:48Z</time>
      </trkpt>
      <trkpt lat="44.42371" lon="1.07164">
        <ele>257.29</ele>
        <time>2013-04-07T07:28:58Z</time>
      </trkpt>
      <trkpt lat="44.42369" lon="1.07163">
        <ele>257.77</ele>
        <time>2013-04-07T07:28:59Z</time>
      </trkpt>
      <trkpt lat="44.42366" lon="1.07162">
        <ele>257.77</ele>
        <time>2013-04-07T07:29:00Z</time>
      </trkpt>
      <trkpt lat="44.42363" lon="1.07162">
        <ele>258.25</ele>
        <time>2013-04-07T07:29:01Z</time>
      </trkpt>
      <trkpt lat="44.4236" lon="1.07163">
        <ele>258.25</ele>
        <time>2013-04-07T07:29:02Z</time>
      </trkpt>
      <trkpt lat="44.42356" lon="1.07163">
        <ele>258.25</ele>
        <time>2013-04-07T07:29:03Z</time>
      </trkpt>
      <trkpt lat="44.42339" lon="1.07166">
        <ele>258.73</ele>
        <time>2013-04-07T07:29:07Z</time>
      </trkpt>
      <trkpt lat="44.4233" lon="1.07165">
        <ele>258.25</ele>
        <time>2013-04-07T07:29:09Z</time>
      </trkpt>
      <trkpt lat="44.42325" lon="1.07163">
        <ele>258.25</ele>
        <time>2013-04-07T07:29:10Z</time>
      </trkpt>
      <trkpt lat="44.42304" lon="1.07158">
        <ele>256.81</ele>
        <time>2013-04-07T07:29:14Z</time>
      </trkpt>
      <trkpt lat="44.42299" lon="1.07158">
        <ele>256.81</ele>
        <time>2013-04-07T07:29:15Z</time>
      </trkpt>
      <trkpt lat="44.42294" lon="1.07159">
        <ele>256.33</ele>
        <time>2013-04-07T07:29:16Z</time>
      </trkpt>
      <trkpt lat="44.42258" lon="1.07173">
        <ele>254.41</ele>
        <time>2013-04-07T07:29:25Z</time>
      </trkpt>
      <trkpt lat="44.42257" lon="1.07177">
        <ele>253.93</ele>
        <time>2013-04-07T07:29:26Z</time>
      </trkpt>
      <trkpt lat="44.42258" lon="1.07183">
        <ele>253.44</ele>
        <time>2013-04-07T07:29:27Z</time>
      </trkpt>
      <trkpt lat="44.42259" lon="1.07189">
        <ele>252.96</ele>
        <time>2013-04-07T07:29:28Z</time>
      </trkpt>
      <trkpt lat="44.42261" lon="1.07196">
        <ele>252.48</ele>
        <time>2013-04-07T07:29:29Z</time>
      </trkpt>
      <trkpt lat="44.42262" lon="1.07202">
        <ele>252.48</ele>
        <time>2013-04-07T07:29:30Z</time>
      </trkpt>
      <trkpt lat="44.42262" lon="1.07208">
        <ele>252</ele>
        <time>2013-04-07T07:29:31Z</time>
      </trkpt>
      <trkpt lat="44.4226" lon="1.07212">
        <ele>251.52</ele>
        <time>2013-04-07T07:29:32Z</time>
      </trkpt>
      <trkpt lat="44.42256" lon="1.07215">
        <ele>251.04</ele>
        <time>2013-04-07T07:29:33Z</time>
      </trkpt>
      <trkpt lat="44.42252" lon="1.07216">
        <ele>250.56</ele>
        <time>2013-04-07T07:29:34Z</time>
      </trkpt>
      <trkpt lat="44.42246" lon="1.07216">
        <ele>250.56</ele>
        <time>2013-04-07T07:29:35Z</time>
      </trkpt>
      <trkpt lat="44.4224" lon="1.07217">
        <ele>250.56</ele>
        <time>2013-04-07T07:29:36Z</time>
      </trkpt>
      <trkpt lat="44.42155" lon="1.07234">
        <ele>250.56</ele>
        <time>2013-04-07T07:29:51Z</time>
      </trkpt>
      <trkpt lat="44.42126" lon="1.0725">
        <ele>250.08</ele>
        <time>2013-04-07T07:29:57Z</time>
      </trkpt>
      <trkpt lat="44.42115" lon="1.07258">
        <ele>249.12</ele>
        <time>2013-04-07T07:30:00Z</time>
      </trkpt>
      <trkpt lat="44.42112" lon="1.07264">
        <ele>248.64</ele>
        <time>2013-04-07T07:30:01Z</time>
      </trkpt>
      <trkpt lat="44.42092" lon="1.07294">
        <ele>244.79</ele>
        <time>2013-04-07T07:30:06Z</time>
      </trkpt>
      <trkpt lat="44.42078" lon="1.07304">
        <ele>243.83</ele>
        <time>2013-04-07T07:30:08Z</time>
      </trkpt>
      <trkpt lat="44.42027" lon="1.073">
        <ele>241.43</ele>
        <time>2013-04-07T07:30:15Z</time>
      </trkpt>
      <trkpt lat="44.42012" lon="1.07299">
        <ele>240.95</ele>
        <time>2013-04-07T07:30:17Z</time>
      </trkpt>
      <trkpt lat="44.41982" lon="1.07301">
        <ele>240.47</ele>
        <time>2013-04-07T07:30:21Z</time>
      </trkpt>
      <trkpt lat="44.41961" lon="1.07307">
        <ele>239.51</ele>
        <time>2013-04-07T07:30:24Z</time>
      </trkpt>
      <trkpt lat="44.41911" lon="1.07336">
        <ele>235.18</ele>
        <time>2013-04-07T07:30:31Z</time>
      </trkpt>
      <trkpt lat="44.41881" lon="1.07389">
        <ele>230.37</ele>
        <time>2013-04-07T07:30:38Z</time>
      </trkpt>
      <trkpt lat="44.41869" lon="1.07397">
        <ele>229.89</ele>
        <time>2013-04-07T07:30:40Z</time>
      </trkpt>
      <trkpt lat="44.41852" lon="1.07404">
        <ele>230.37</ele>
        <time>2013-04-07T07:30:43Z</time>
      </trkpt>
      <trkpt lat="44.41808" lon="1.07441">
        <ele>236.14</ele>
        <time>2013-04-07T07:30:57Z</time>
      </trkpt>
      <trkpt lat="44.41771" lon="1.07475">
        <ele>239.99</ele>
        <time>2013-04-07T07:31:11Z</time>
      </trkpt>
      <trkpt lat="44.4172" lon="1.07506">
        <ele>238.06</ele>
        <time>2013-04-07T07:31:23Z</time>
      </trkpt>
      <trkpt lat="44.41711" lon="1.07512">
        <ele>237.1</ele>
        <time>2013-04-07T07:31:25Z</time>
      </trkpt>
      <trkpt lat="44.41677" lon="1.07541">
        <ele>233.26</ele>
        <time>2013-04-07T07:31:33Z</time>
      </trkpt>
      <trkpt lat="44.41673" lon="1.07546">
        <ele>232.78</ele>
        <time>2013-04-07T07:31:34Z</time>
      </trkpt>
      <trkpt lat="44.41656" lon="1.07571">
        <ele>231.33</ele>
        <time>2013-04-07T07:31:39Z</time>
      </trkpt>
      <trkpt lat="44.41621" lon="1.07622">
        <ele>230.37</ele>
        <time>2013-04-07T07:31:49Z</time>
      </trkpt>
      <trkpt lat="44.41607" lon="1.07649">
        <ele>229.41</ele>
        <time>2013-04-07T07:31:54Z</time>
      </trkpt>
      <trkpt lat="44.41605" lon="1.07656">
        <ele>229.41</ele>
        <time>2013-04-07T07:31:55Z</time>
      </trkpt>
      <trkpt lat="44.41604" lon="1.07663">
        <ele>228.93</ele>
        <time>2013-04-07T07:31:56Z</time>
      </trkpt>
      <trkpt lat="44.41602" lon="1.0767">
        <ele>228.93</ele>
        <time>2013-04-07T07:31:57Z</time>
      </trkpt>
      <trkpt lat="44.41601" lon="1.07677">
        <ele>228.45</ele>
        <time>2013-04-07T07:31:58Z</time>
      </trkpt>
      <trkpt lat="44.41585" lon="1.07765">
        <ele>224.61</ele>
        <time>2013-04-07T07:32:11Z</time>
      </trkpt>
      <trkpt lat="44.41583" lon="1.07805">
        <ele>223.64</ele>
        <time>2013-04-07T07:32:19Z</time>
      </trkpt>
      <trkpt lat="44.41583" lon="1.07818">
        <ele>223.16</ele>
        <time>2013-04-07T07:32:21Z</time>
      </trkpt>
      <trkpt lat="44.41583" lon="1.07825">
        <ele>223.16</ele>
        <time>2013-04-07T07:32:22Z</time>
      </trkpt>
      <trkpt lat="44.41576" lon="1.07926">
        <ele>220.28</ele>
        <time>2013-04-07T07:32:33Z</time>
      </trkpt>
      <trkpt lat="44.41574" lon="1.07933">
        <ele>220.28</ele>
        <time>2013-04-07T07:32:34Z</time>
      </trkpt>
      <trkpt lat="44.41565" lon="1.07961">
        <ele>220.76</ele>
        <time>2013-04-07T07:32:39Z</time>
      </trkpt>
      <trkpt lat="44.41565" lon="1.07967">
        <ele>221.24</ele>
        <time>2013-04-07T07:32:40Z</time>
      </trkpt>
      <trkpt lat="44.41566" lon="1.07972">
        <ele>221.24</ele>
        <time>2013-04-07T07:32:41Z</time>
      </trkpt>
      <trkpt lat="44.41567" lon="1.07977">
        <ele>221.72</ele>
        <time>2013-04-07T07:32:42Z</time>
      </trkpt>
      <trkpt lat="44.41569" lon="1.07981">
        <ele>221.72</ele>
        <time>2013-04-07T07:32:43Z</time>
      </trkpt>
      <trkpt lat="44.41587" lon="1.08029">
        <ele>224.12</ele>
        <time>2013-04-07T07:32:53Z</time>
      </trkpt>
      <trkpt lat="44.41614" lon="1.08091">
        <ele>225.57</ele>
        <time>2013-04-07T07:33:06Z</time>
      </trkpt>
      <trkpt lat="44.41642" lon="1.08156">
        <ele>226.05</ele>
        <time>2013-04-07T07:33:20Z</time>
      </trkpt>
      <trkpt lat="44.41668" lon="1.08214">
        <ele>227.01</ele>
        <time>2013-04-07T07:33:34Z</time>
      </trkpt>
      <trkpt lat="44.41685" lon="1.0826">
        <ele>229.89</ele>
        <time>2013-04-07T07:33:45Z</time>
      </trkpt>
      <trkpt lat="44.41703" lon="1.08301">
        <ele>231.33</ele>
        <time>2013-04-07T07:33:56Z</time>
      </trkpt>
      <trkpt lat="44.41706" lon="1.08305">
        <ele>231.33</ele>
        <time>2013-04-07T07:33:57Z</time>
      </trkpt>
      <trkpt lat="44.41751" lon="1.08354">
        <ele>228.45</ele>
        <time>2013-04-07T07:34:09Z</time>
      </trkpt>
      <trkpt lat="44.41776" lon="1.08388">
        <ele>228.45</ele>
        <time>2013-04-07T07:34:17Z</time>
      </trkpt>
      <trkpt lat="44.41799" lon="1.0842">
        <ele>229.41</ele>
        <time>2013-04-07T07:34:25Z</time>
      </trkpt>
      <trkpt lat="44.41804" lon="1.08447">
        <ele>229.89</ele>
        <time>2013-04-07T07:34:30Z</time>
      </trkpt>
      <trkpt lat="44.41805" lon="1.08508">
        <ele>231.33</ele>
        <time>2013-04-07T07:34:42Z</time>
      </trkpt>
      <trkpt lat="44.41802" lon="1.08569">
        <ele>232.78</ele>
        <time>2013-04-07T07:34:55Z</time>
      </trkpt>
      <trkpt lat="44.41832" lon="1.08581">
        <ele>236.14</ele>
        <time>2013-04-07T07:35:06Z</time>
      </trkpt>
      <trkpt lat="44.41862" lon="1.08603">
        <ele>240.95</ele>
        <time>2013-04-07T07:35:20Z</time>
      </trkpt>
      <trkpt lat="44.41889" lon="1.08643">
        <ele>242.87</ele>
        <time>2013-04-07T07:35:34Z</time>
      </trkpt>
      <trkpt lat="44.41893" lon="1.08645">
        <ele>242.87</ele>
        <time>2013-04-07T07:35:35Z</time>
      </trkpt>
      <trkpt lat="44.41918" lon="1.0864">
        <ele>239.99</ele>
        <time>2013-04-07T07:35:40Z</time>
      </trkpt>
      <trkpt lat="44.41961" lon="1.0863">
        <ele>237.58</ele>
        <time>2013-04-07T07:35:49Z</time>
      </trkpt>
      <trkpt lat="44.41969" lon="1.08651">
        <ele>237.1</ele>
        <time>2013-04-07T07:35:55Z</time>
      </trkpt>
      <trkpt lat="44.41972" lon="1.08661">
        <ele>237.1</ele>
        <time>2013-04-07T07:35:57Z</time>
      </trkpt>
      <trkpt lat="44.41983" lon="1.08727">
        <ele>238.54</ele>
        <time>2013-04-07T07:36:11Z</time>
      </trkpt>
      <trkpt lat="44.42002" lon="1.08785">
        <ele>243.35</ele>
        <time>2013-04-07T07:36:25Z</time>
      </trkpt>
      <trkpt lat="44.42022" lon="1.08845">
        <ele>244.31</ele>
        <time>2013-04-07T07:36:37Z</time>
      </trkpt>
      <trkpt lat="44.4205" lon="1.08912">
        <ele>247.68</ele>
        <time>2013-04-07T07:36:53Z</time>
      </trkpt>
      <trkpt lat="44.42074" lon="1.08967">
        <ele>248.64</ele>
        <time>2013-04-07T07:37:09Z</time>
      </trkpt>
      <trkpt lat="44.4209" lon="1.09">
        <ele>250.08</ele>
        <time>2013-04-07T07:37:20Z</time>
      </trkpt>
      <trkpt lat="44.42103" lon="1.09019">
        <ele>251.52</ele>
        <time>2013-04-07T07:37:26Z</time>
      </trkpt>
      <trkpt lat="44.42115" lon="1.09043">
        <ele>253.93</ele>
        <time>2013-04-07T07:37:34Z</time>
      </trkpt>
      <trkpt lat="44.42141" lon="1.09085">
        <ele>255.37</ele>
        <time>2013-04-07T07:37:47Z</time>
      </trkpt>
      <trkpt lat="44.42169" lon="1.0913">
        <ele>253.93</ele>
        <time>2013-04-07T07:37:59Z</time>
      </trkpt>
      <trkpt lat="44.42206" lon="1.09203">
        <ele>252.96</ele>
        <time>2013-04-07T07:38:16Z</time>
      </trkpt>
      <trkpt lat="44.42213" lon="1.09218">
        <ele>252.48</ele>
        <time>2013-04-07T07:38:19Z</time>
      </trkpt>
      <trkpt lat="44.42223" lon="1.0924">
        <ele>251.52</ele>
        <time>2013-04-07T07:38:23Z</time>
      </trkpt>
      <trkpt lat="44.42267" lon="1.09335">
        <ele>252</ele>
        <time>2013-04-07T07:38:40Z</time>
      </trkpt>
      <trkpt lat="44.42283" lon="1.0937">
        <ele>250.56</ele>
        <time>2013-04-07T07:38:46Z</time>
      </trkpt>
      <trkpt lat="44.42289" lon="1.09385">
        <ele>250.08</ele>
        <time>2013-04-07T07:38:49Z</time>
      </trkpt>
      <trkpt lat="44.42299" lon="1.09388">
        <ele>249.6</ele>
        <time>2013-04-07T07:38:53Z</time>
      </trkpt>
      <trkpt lat="44.42359" lon="1.09346">
        <ele>248.16</ele>
        <time>2013-04-07T07:39:08Z</time>
      </trkpt>
      <trkpt lat="44.42367" lon="1.0934">
        <ele>248.64</ele>
        <time>2013-04-07T07:39:10Z</time>
      </trkpt>
      <trkpt lat="44.42375" lon="1.09336">
        <ele>248.64</ele>
        <time>2013-04-07T07:39:12Z</time>
      </trkpt>
      <trkpt lat="44.42396" lon="1.09328">
        <ele>248.64</ele>
        <time>2013-04-07T07:39:17Z</time>
      </trkpt>
      <trkpt lat="44.42454" lon="1.09292">
        <ele>248.64</ele>
        <time>2013-04-07T07:39:31Z</time>
      </trkpt>
      <trkpt lat="44.4249" lon="1.09252">
        <ele>249.12</ele>
        <time>2013-04-07T07:39:43Z</time>
      </trkpt>
      <trkpt lat="44.42522" lon="1.09201">
        <ele>249.12</ele>
        <time>2013-04-07T07:39:55Z</time>
      </trkpt>
      <trkpt lat="44.42535" lon="1.09175">
        <ele>248.64</ele>
        <time>2013-04-07T07:40:00Z</time>
      </trkpt>
      <trkpt lat="44.42554" lon="1.09143">
        <ele>247.2</ele>
        <time>2013-04-07T07:40:07Z</time>
      </trkpt>
      <trkpt lat="44.42563" lon="1.09129">
        <ele>247.2</ele>
        <time>2013-04-07T07:40:10Z</time>
      </trkpt>
      <trkpt lat="44.42583" lon="1.0911">
        <ele>246.72</ele>
        <time>2013-04-07T07:40:15Z</time>
      </trkpt>
      <trkpt lat="44.42607" lon="1.09093">
        <ele>246.23</ele>
        <time>2013-04-07T07:40:21Z</time>
      </trkpt>
      <trkpt lat="44.42616" lon="1.09079">
        <ele>245.75</ele>
        <time>2013-04-07T07:40:24Z</time>
      </trkpt>
      <trkpt lat="44.4263" lon="1.09066">
        <ele>245.27</ele>
        <time>2013-04-07T07:40:27Z</time>
      </trkpt>
      <trkpt lat="44.42647" lon="1.09048">
        <ele>245.27</ele>
        <time>2013-04-07T07:40:31Z</time>
      </trkpt>
      <trkpt lat="44.42665" lon="1.09019">
        <ele>245.27</ele>
        <time>2013-04-07T07:40:37Z</time>
      </trkpt>
      <trkpt lat="44.42725" lon="1.08969">
        <ele>244.31</ele>
        <time>2013-04-07T07:40:52Z</time>
      </trkpt>
      <trkpt lat="44.4281" lon="1.0894">
        <ele>242.87</ele>
        <time>2013-04-07T07:41:10Z</time>
      </trkpt>
      <trkpt lat="44.42825" lon="1.08937">
        <ele>243.35</ele>
        <time>2013-04-07T07:41:15Z</time>
      </trkpt>
      <trkpt lat="44.42829" lon="1.08936">
        <ele>242.87</ele>
        <time>2013-04-07T07:41:16Z</time>
      </trkpt>
      <trkpt lat="44.42838" lon="1.08932">
        <ele>242.39</ele>
        <time>2013-04-07T07:41:18Z</time>
      </trkpt>
      <trkpt lat="44.42842" lon="1.08929">
        <ele>241.91</ele>
        <time>2013-04-07T07:41:19Z</time>
      </trkpt>
      <trkpt lat="44.4285" lon="1.08922">
        <ele>241.91</ele>
        <time>2013-04-07T07:41:21Z</time>
      </trkpt>
      <trkpt lat="44.42854" lon="1.08918">
        <ele>241.91</ele>
        <time>2013-04-07T07:41:22Z</time>
      </trkpt>
      <trkpt lat="44.42887" lon="1.08867">
        <ele>241.91</ele>
        <time>2013-04-07T07:41:32Z</time>
      </trkpt>
      <trkpt lat="44.42893" lon="1.08856">
        <ele>241.43</ele>
        <time>2013-04-07T07:41:34Z</time>
      </trkpt>
      <trkpt lat="44.42904" lon="1.0884">
        <ele>241.43</ele>
        <time>2013-04-07T07:41:37Z</time>
      </trkpt>
      <trkpt lat="44.4293" lon="1.08814">
        <ele>240.95</ele>
        <time>2013-04-07T07:41:43Z</time>
      </trkpt>
      <trkpt lat="44.42976" lon="1.08798">
        <ele>240.95</ele>
        <time>2013-04-07T07:41:52Z</time>
      </trkpt>
      <trkpt lat="44.42981" lon="1.08798">
        <ele>240.47</ele>
        <time>2013-04-07T07:41:53Z</time>
      </trkpt>
      <trkpt lat="44.42992" lon="1.088">
        <ele>240.95</ele>
        <time>2013-04-07T07:41:55Z</time>
      </trkpt>
      <trkpt lat="44.42998" lon="1.088">
        <ele>240.95</ele>
        <time>2013-04-07T07:41:56Z</time>
      </trkpt>
      <trkpt lat="44.43057" lon="1.08798">
        <ele>241.43</ele>
        <time>2013-04-07T07:42:07Z</time>
      </trkpt>
      <trkpt lat="44.43062" lon="1.088">
        <ele>241.43</ele>
        <time>2013-04-07T07:42:08Z</time>
      </trkpt>
      <trkpt lat="44.43077" lon="1.08806">
        <ele>240.95</ele>
        <time>2013-04-07T07:42:11Z</time>
      </trkpt>
      <trkpt lat="44.43104" lon="1.08815">
        <ele>239.02</ele>
        <time>2013-04-07T07:42:16Z</time>
      </trkpt>
      <trkpt lat="44.43109" lon="1.08815">
        <ele>239.02</ele>
        <time>2013-04-07T07:42:17Z</time>
      </trkpt>
      <trkpt lat="44.43114" lon="1.08814">
        <ele>239.02</ele>
        <time>2013-04-07T07:42:18Z</time>
      </trkpt>
      <trkpt lat="44.43195" lon="1.08786">
        <ele>237.1</ele>
        <time>2013-04-07T07:42:33Z</time>
      </trkpt>
      <trkpt lat="44.4323" lon="1.08775">
        <ele>235.66</ele>
        <time>2013-04-07T07:42:39Z</time>
      </trkpt>
      <trkpt lat="44.43236" lon="1.08774">
        <ele>235.66</ele>
        <time>2013-04-07T07:42:40Z</time>
      </trkpt>
      <trkpt lat="44.43242" lon="1.08772">
        <ele>235.66</ele>
        <time>2013-04-07T07:42:41Z</time>
      </trkpt>
      <trkpt lat="44.4327" lon="1.08765">
        <ele>237.1</ele>
        <time>2013-04-07T07:42:46Z</time>
      </trkpt>
      <trkpt lat="44.43281" lon="1.08762">
        <ele>237.1</ele>
        <time>2013-04-07T07:42:48Z</time>
      </trkpt>
      <trkpt lat="44.43286" lon="1.0876">
        <ele>237.58</ele>
        <time>2013-04-07T07:42:49Z</time>
      </trkpt>
      <trkpt lat="44.43292" lon="1.08758">
        <ele>238.06</ele>
        <time>2013-04-07T07:42:50Z</time>
      </trkpt>
      <trkpt lat="44.43355" lon="1.08746">
        <ele>238.06</ele>
        <time>2013-04-07T07:43:01Z</time>
      </trkpt>
      <trkpt lat="44.43389" lon="1.08737">
        <ele>237.1</ele>
        <time>2013-04-07T07:43:07Z</time>
      </trkpt>
      <trkpt lat="44.43469" lon="1.08701">
        <ele>236.62</ele>
        <time>2013-04-07T07:43:20Z</time>
      </trkpt>
      <trkpt lat="44.43523" lon="1.08688">
        <ele>235.66</ele>
        <time>2013-04-07T07:43:28Z</time>
      </trkpt>
      <trkpt lat="44.43632" lon="1.08643">
        <ele>231.33</ele>
        <time>2013-04-07T07:43:43Z</time>
      </trkpt>
      <trkpt lat="44.4374" lon="1.08581">
        <ele>228.93</ele>
        <time>2013-04-07T07:43:58Z</time>
      </trkpt>
      <trkpt lat="44.43785" lon="1.08555">
        <ele>227.97</ele>
        <time>2013-04-07T07:44:04Z</time>
      </trkpt>
      <trkpt lat="44.43827" lon="1.08527">
        <ele>227.49</ele>
        <time>2013-04-07T07:44:10Z</time>
      </trkpt>
      <trkpt lat="44.43834" lon="1.08523">
        <ele>227.01</ele>
        <time>2013-04-07T07:44:11Z</time>
      </trkpt>
      <trkpt lat="44.43863" lon="1.08509">
        <ele>226.53</ele>
        <time>2013-04-07T07:44:15Z</time>
      </trkpt>
      <trkpt lat="44.4387" lon="1.08506">
        <ele>226.53</ele>
        <time>2013-04-07T07:44:16Z</time>
      </trkpt>
      <trkpt lat="44.43923" lon="1.08486">
        <ele>226.05</ele>
        <time>2013-04-07T07:44:23Z</time>
      </trkpt>
      <trkpt lat="44.43931" lon="1.08485">
        <ele>226.05</ele>
        <time>2013-04-07T07:44:24Z</time>
      </trkpt>
      <trkpt lat="44.43939" lon="1.08486">
        <ele>226.05</ele>
        <time>2013-04-07T07:44:25Z</time>
      </trkpt>
      <trkpt lat="44.43998" lon="1.08493">
        <ele>225.09</ele>
        <time>2013-04-07T07:44:34Z</time>
      </trkpt>
      <trkpt lat="44.44064" lon="1.08513">
        <ele>222.68</ele>
        <time>2013-04-07T07:44:43Z</time>
      </trkpt>
      <trkpt lat="44.4407" lon="1.08517">
        <ele>222.68</ele>
        <time>2013-04-07T07:44:44Z</time>
      </trkpt>
      <trkpt lat="44.44138" lon="1.08572">
        <ele>223.16</ele>
        <time>2013-04-07T07:44:56Z</time>
      </trkpt>
      <trkpt lat="44.44229" lon="1.0863">
        <ele>225.09</ele>
        <time>2013-04-07T07:45:11Z</time>
      </trkpt>
      <trkpt lat="44.44256" lon="1.08645">
        <ele>225.09</ele>
        <time>2013-04-07T07:45:15Z</time>
      </trkpt>
      <trkpt lat="44.44262" lon="1.08647">
        <ele>225.09</ele>
        <time>2013-04-07T07:45:16Z</time>
      </trkpt>
      <trkpt lat="44.44269" lon="1.08649">
        <ele>225.09</ele>
        <time>2013-04-07T07:45:17Z</time>
      </trkpt>
      <trkpt lat="44.44389" lon="1.08669">
        <ele>222.68</ele>
        <time>2013-04-07T07:45:34Z</time>
      </trkpt>
      <trkpt lat="44.44466" lon="1.08672">
        <ele>220.28</ele>
        <time>2013-04-07T07:45:46Z</time>
      </trkpt>
      <trkpt lat="44.44471" lon="1.08673">
        <ele>219.8</ele>
        <time>2013-04-07T07:45:47Z</time>
      </trkpt>
      <trkpt lat="44.44475" lon="1.08674">
        <ele>219.8</ele>
        <time>2013-04-07T07:45:48Z</time>
      </trkpt>
      <trkpt lat="44.44478" lon="1.08675">
        <ele>219.8</ele>
        <time>2013-04-07T07:45:49Z</time>
      </trkpt>
      <trkpt lat="44.4448" lon="1.08676">
        <ele>219.8</ele>
        <time>2013-04-07T07:45:50Z</time>
      </trkpt>
      <trkpt lat="44.44482" lon="1.08679">
        <ele>219.8</ele>
        <time>2013-04-07T07:45:51Z</time>
      </trkpt>
      <trkpt lat="44.44484" lon="1.08682">
        <ele>220.28</ele>
        <time>2013-04-07T07:45:52Z</time>
      </trkpt>
      <trkpt lat="44.44486" lon="1.08685">
        <ele>220.28</ele>
        <time>2013-04-07T07:45:53Z</time>
      </trkpt>
      <trkpt lat="44.44519" lon="1.08735">
        <ele>221.24</ele>
        <time>2013-04-07T07:46:07Z</time>
      </trkpt>
      <trkpt lat="44.44559" lon="1.08803">
        <ele>224.61</ele>
        <time>2013-04-07T07:46:25Z</time>
      </trkpt>
      <trkpt lat="44.44572" lon="1.08856">
        <ele>224.61</ele>
        <time>2013-04-07T07:46:37Z</time>
      </trkpt>
      <trkpt lat="44.44572" lon="1.08918">
        <ele>226.53</ele>
        <time>2013-04-07T07:46:49Z</time>
      </trkpt>
      <trkpt lat="44.44577" lon="1.08985">
        <ele>230.85</ele>
        <time>2013-04-07T07:47:02Z</time>
      </trkpt>
      <trkpt lat="44.44577" lon="1.09044">
        <ele>234.22</ele>
        <time>2013-04-07T07:47:14Z</time>
      </trkpt>
      <trkpt lat="44.44576" lon="1.09109">
        <ele>234.22</ele>
        <time>2013-04-07T07:47:26Z</time>
      </trkpt>
      <trkpt lat="44.44568" lon="1.09191">
        <ele>231.33</ele>
        <time>2013-04-07T07:47:39Z</time>
      </trkpt>
      <trkpt lat="44.44568" lon="1.09197">
        <ele>230.85</ele>
        <time>2013-04-07T07:47:40Z</time>
      </trkpt>
      <trkpt lat="44.44567" lon="1.09204">
        <ele>230.85</ele>
        <time>2013-04-07T07:47:41Z</time>
      </trkpt>
      <trkpt lat="44.44567" lon="1.09211">
        <ele>230.37</ele>
        <time>2013-04-07T07:47:42Z</time>
      </trkpt>
      <trkpt lat="44.44566" lon="1.09218">
        <ele>230.37</ele>
        <time>2013-04-07T07:47:43Z</time>
      </trkpt>
      <trkpt lat="44.44564" lon="1.09225">
        <ele>229.89</ele>
        <time>2013-04-07T07:47:44Z</time>
      </trkpt>
      <trkpt lat="44.44544" lon="1.09299">
        <ele>226.05</ele>
        <time>2013-04-07T07:47:54Z</time>
      </trkpt>
      <trkpt lat="44.44539" lon="1.0931">
        <ele>225.57</ele>
        <time>2013-04-07T07:47:56Z</time>
      </trkpt>
      <trkpt lat="44.44538" lon="1.09315">
        <ele>225.09</ele>
        <time>2013-04-07T07:47:57Z</time>
      </trkpt>
      <trkpt lat="44.44536" lon="1.09321">
        <ele>225.09</ele>
        <time>2013-04-07T07:47:58Z</time>
      </trkpt>
      <trkpt lat="44.44511" lon="1.094">
        <ele>226.05</ele>
        <time>2013-04-07T07:48:10Z</time>
      </trkpt>
      <trkpt lat="44.44509" lon="1.09408">
        <ele>226.05</ele>
        <time>2013-04-07T07:48:11Z</time>
      </trkpt>
      <trkpt lat="44.44507" lon="1.09422">
        <ele>226.05</ele>
        <time>2013-04-07T07:48:13Z</time>
      </trkpt>
      <trkpt lat="44.44507" lon="1.09429">
        <ele>226.05</ele>
        <time>2013-04-07T07:48:14Z</time>
      </trkpt>
      <trkpt lat="44.44512" lon="1.0944">
        <ele>226.05</ele>
        <time>2013-04-07T07:48:16Z</time>
      </trkpt>
      <trkpt lat="44.44541" lon="1.09496">
        <ele>230.37</ele>
        <time>2013-04-07T07:48:30Z</time>
      </trkpt>
      <trkpt lat="44.44558" lon="1.09548">
        <ele>233.26</ele>
        <time>2013-04-07T07:48:43Z</time>
      </trkpt>
      <trkpt lat="44.44576" lon="1.09595">
        <ele>234.22</ele>
        <time>2013-04-07T07:48:54Z</time>
      </trkpt>
      <trkpt lat="44.44605" lon="1.09588">
        <ele>234.22</ele>
        <time>2013-04-07T07:49:04Z</time>
      </trkpt>
      <trkpt lat="44.44651" lon="1.0957">
        <ele>233.74</ele>
        <time>2013-04-07T07:49:16Z</time>
      </trkpt>
      <trkpt lat="44.44691" lon="1.09555">
        <ele>234.22</ele>
        <time>2013-04-07T07:49:27Z</time>
      </trkpt>
      <trkpt lat="44.44757" lon="1.09556">
        <ele>229.41</ele>
        <time>2013-04-07T07:49:42Z</time>
      </trkpt>
      <trkpt lat="44.44794" lon="1.09559">
        <ele>228.93</ele>
        <time>2013-04-07T07:49:49Z</time>
      </trkpt>
      <trkpt lat="44.44836" lon="1.09555">
        <ele>231.33</ele>
        <time>2013-04-07T07:50:02Z</time>
      </trkpt>
      <trkpt lat="44.44868" lon="1.09541">
        <ele>230.37</ele>
        <time>2013-04-07T07:50:12Z</time>
      </trkpt>
      <trkpt lat="44.44881" lon="1.09532">
        <ele>229.89</ele>
        <time>2013-04-07T07:50:15Z</time>
      </trkpt>
      <trkpt lat="44.449" lon="1.09528">
        <ele>227.97</ele>
        <time>2013-04-07T07:50:19Z</time>
      </trkpt>
      <trkpt lat="44.44917" lon="1.09526">
        <ele>227.49</ele>
        <time>2013-04-07T07:50:22Z</time>
      </trkpt>
      <trkpt lat="44.44972" lon="1.09474">
        <ele>225.09</ele>
        <time>2013-04-07T07:50:32Z</time>
      </trkpt>
      <trkpt lat="44.45013" lon="1.09436">
        <ele>224.61</ele>
        <time>2013-04-07T07:50:39Z</time>
      </trkpt>
      <trkpt lat="44.45094" lon="1.09384">
        <ele>221.24</ele>
        <time>2013-04-07T07:50:52Z</time>
      </trkpt>
      <trkpt lat="44.45168" lon="1.09344">
        <ele>217.88</ele>
        <time>2013-04-07T07:51:04Z</time>
      </trkpt>
      <trkpt lat="44.45181" lon="1.09341">
        <ele>217.88</ele>
        <time>2013-04-07T07:51:06Z</time>
      </trkpt>
      <trkpt lat="44.45213" lon="1.09365">
        <ele>221.24</ele>
        <time>2013-04-07T07:51:13Z</time>
      </trkpt>
      <trkpt lat="44.45234" lon="1.09384">
        <ele>223.64</ele>
        <time>2013-04-07T07:51:18Z</time>
      </trkpt>
      <trkpt lat="44.45279" lon="1.09405">
        <ele>228.45</ele>
        <time>2013-04-07T07:51:31Z</time>
      </trkpt>
      <trkpt lat="44.45323" lon="1.09428">
        <ele>232.78</ele>
        <time>2013-04-07T07:51:46Z</time>
      </trkpt>
      <trkpt lat="44.45369" lon="1.09448">
        <ele>236.62</ele>
        <time>2013-04-07T07:52:01Z</time>
      </trkpt>
      <trkpt lat="44.45412" lon="1.09478">
        <ele>238.06</ele>
        <time>2013-04-07T07:52:17Z</time>
      </trkpt>
      <trkpt lat="44.45415" lon="1.0948">
        <ele>238.06</ele>
        <time>2013-04-07T07:52:19Z</time>
      </trkpt>
      <trkpt lat="44.45419" lon="1.09478">
        <ele>237.58</ele>
        <time>2013-04-07T07:52:32Z</time>
      </trkpt>
      <trkpt lat="44.45415" lon="1.09475">
        <ele>234.7</ele>
        <time>2013-04-07T07:53:08Z</time>
      </trkpt>
      <trkpt lat="44.45411" lon="1.09474">
        <ele>231.33</ele>
        <time>2013-04-07T07:53:45Z</time>
      </trkpt>
      <trkpt lat="44.45411" lon="1.09473">
        <ele>234.7</ele>
        <time>2013-04-07T07:54:29Z</time>
      </trkpt>
      <trkpt lat="44.4541" lon="1.09469">
        <ele>233.74</ele>
        <time>2013-04-07T07:55:18Z</time>
      </trkpt>
      <trkpt lat="44.45413" lon="1.09467">
        <ele>232.3</ele>
        <time>2013-04-07T07:55:58Z</time>
      </trkpt>
      <trkpt lat="44.45416" lon="1.09472">
        <ele>231.81</ele>
        <time>2013-04-07T07:56:23Z</time>
      </trkpt>
      <trkpt lat="44.45415" lon="1.09479">
        <ele>236.62</ele>
        <time>2013-04-07T07:57:08Z</time>
      </trkpt>
      <trkpt lat="44.45417" lon="1.09478">
        <ele>237.58</ele>
        <time>2013-04-07T07:57:38Z</time>
      </trkpt>
      <trkpt lat="44.45415" lon="1.09476">
        <ele>237.1</ele>
        <time>2013-04-07T07:58:13Z</time>
      </trkpt>
      <trkpt lat="44.45416" lon="1.09473">
        <ele>231.81</ele>
        <time>2013-04-07T07:58:54Z</time>
      </trkpt>
      <trkpt lat="44.45414" lon="1.09468">
        <ele>234.22</ele>
        <time>2013-04-07T07:59:30Z</time>
      </trkpt>
      <trkpt lat="44.45416" lon="1.09473">
        <ele>238.06</ele>
        <time>2013-04-07T08:00:02Z</time>
      </trkpt>
      <trkpt lat="44.45416" lon="1.09477">
        <ele>238.54</ele>
        <time>2013-04-07T08:00:41Z</time>
      </trkpt>
      <trkpt lat="44.45413" lon="1.09475">
        <ele>242.39</ele>
        <time>2013-04-07T08:01:23Z</time>
      </trkpt>
      <trkpt lat="44.45416" lon="1.0948">
        <ele>240.95</ele>
        <time>2013-04-07T08:01:58Z</time>
      </trkpt>
      <trkpt lat="44.45415" lon="1.09476">
        <ele>238.06</ele>
        <time>2013-04-07T08:02:39Z</time>
      </trkpt>
      <trkpt lat="44.45417" lon="1.09481">
        <ele>239.02</ele>
        <time>2013-04-07T08:03:09Z</time>
      </trkpt>
      <trkpt lat="44.45419" lon="1.09476">
        <ele>232.78</ele>
        <time>2013-04-07T08:03:42Z</time>
      </trkpt>
      <trkpt lat="44.4542" lon="1.09478">
        <ele>232.3</ele>
        <time>2013-04-07T08:04:26Z</time>
      </trkpt>
      <trkpt lat="44.45421" lon="1.09482">
        <ele>232.78</ele>
        <time>2013-04-07T08:05:08Z</time>
      </trkpt>
      <trkpt lat="44.45418" lon="1.09483">
        <ele>236.62</ele>
        <time>2013-04-07T08:05:41Z</time>
      </trkpt>
      <trkpt lat="44.45417" lon="1.09486">
        <ele>239.02</ele>
        <time>2013-04-07T08:05:55Z</time>
      </trkpt>
      <trkpt lat="44.45417" lon="1.09485">
        <ele>239.51</ele>
        <time>2013-04-07T08:05:59Z</time>
      </trkpt>
      <trkpt lat="44.45421" lon="1.09494">
        <ele>240.47</ele>
        <time>2013-04-07T08:06:05Z</time>
      </trkpt>
      <trkpt lat="44.45445" lon="1.09516">
        <ele>238.54</ele>
        <time>2013-04-07T08:06:16Z</time>
      </trkpt>
      <trkpt lat="44.45489" lon="1.0955">
        <ele>232.78</ele>
        <time>2013-04-07T08:06:24Z</time>
      </trkpt>
      <trkpt lat="44.4552" lon="1.09543">
        <ele>229.41</ele>
        <time>2013-04-07T08:06:31Z</time>
      </trkpt>
      <trkpt lat="44.4553" lon="1.09526">
        <ele>227.01</ele>
        <time>2013-04-07T08:06:34Z</time>
      </trkpt>
      <trkpt lat="44.45551" lon="1.09523">
        <ele>224.61</ele>
        <time>2013-04-07T08:06:41Z</time>
      </trkpt>
      <trkpt lat="44.45552" lon="1.09527">
        <ele>224.61</ele>
        <time>2013-04-07T08:06:42Z</time>
      </trkpt>
      <trkpt lat="44.45551" lon="1.09532">
        <ele>224.61</ele>
        <time>2013-04-07T08:06:43Z</time>
      </trkpt>
      <trkpt lat="44.45549" lon="1.09537">
        <ele>225.09</ele>
        <time>2013-04-07T08:06:44Z</time>
      </trkpt>
      <trkpt lat="44.45547" lon="1.09542">
        <ele>225.09</ele>
        <time>2013-04-07T08:06:45Z</time>
      </trkpt>
      <trkpt lat="44.45535" lon="1.09566">
        <ele>226.53</ele>
        <time>2013-04-07T08:06:50Z</time>
      </trkpt>
      <trkpt lat="44.45503" lon="1.0963">
        <ele>230.37</ele>
        <time>2013-04-07T08:07:05Z</time>
      </trkpt>
      <trkpt lat="44.45473" lon="1.09689">
        <ele>235.18</ele>
        <time>2013-04-07T08:07:20Z</time>
      </trkpt>
      <trkpt lat="44.45448" lon="1.09742">
        <ele>241.43</ele>
        <time>2013-04-07T08:07:34Z</time>
      </trkpt>
      <trkpt lat="44.45418" lon="1.09806">
        <ele>245.75</ele>
        <time>2013-04-07T08:07:50Z</time>
      </trkpt>
      <trkpt lat="44.45375" lon="1.09871">
        <ele>245.27</ele>
        <time>2013-04-07T08:08:07Z</time>
      </trkpt>
      <trkpt lat="44.45348" lon="1.09896">
        <ele>242.39</ele>
        <time>2013-04-07T08:08:12Z</time>
      </trkpt>
      <trkpt lat="44.45288" lon="1.09998">
        <ele>236.14</ele>
        <time>2013-04-07T08:08:24Z</time>
      </trkpt>
      <trkpt lat="44.45276" lon="1.10017">
        <ele>234.7</ele>
        <time>2013-04-07T08:08:27Z</time>
      </trkpt>
      <trkpt lat="44.45268" lon="1.10029">
        <ele>234.22</ele>
        <time>2013-04-07T08:08:30Z</time>
      </trkpt>
      <trkpt lat="44.45269" lon="1.10033">
        <ele>234.22</ele>
        <time>2013-04-07T08:08:31Z</time>
      </trkpt>
      <trkpt lat="44.45271" lon="1.10034">
        <ele>234.22</ele>
        <time>2013-04-07T08:08:32Z</time>
      </trkpt>
      <trkpt lat="44.45274" lon="1.10035">
        <ele>233.74</ele>
        <time>2013-04-07T08:08:33Z</time>
      </trkpt>
      <trkpt lat="44.45278" lon="1.10034">
        <ele>234.22</ele>
        <time>2013-04-07T08:08:34Z</time>
      </trkpt>
      <trkpt lat="44.4532" lon="1.10028">
        <ele>237.1</ele>
        <time>2013-04-07T08:08:47Z</time>
      </trkpt>
      <trkpt lat="44.45367" lon="1.10025">
        <ele>240.95</ele>
        <time>2013-04-07T08:09:02Z</time>
      </trkpt>
      <trkpt lat="44.45404" lon="1.10018">
        <ele>244.31</ele>
        <time>2013-04-07T08:09:15Z</time>
      </trkpt>
      <trkpt lat="44.45448" lon="1.10005">
        <ele>248.16</ele>
        <time>2013-04-07T08:09:29Z</time>
      </trkpt>
      <trkpt lat="44.45456" lon="1.10001">
        <ele>248.16</ele>
        <time>2013-04-07T08:09:31Z</time>
      </trkpt>
      <trkpt lat="44.45504" lon="1.09972">
        <ele>245.75</ele>
        <time>2013-04-07T08:09:42Z</time>
      </trkpt>
      <trkpt lat="44.45565" lon="1.09928">
        <ele>246.72</ele>
        <time>2013-04-07T08:09:57Z</time>
      </trkpt>
      <trkpt lat="44.45598" lon="1.09906">
        <ele>247.2</ele>
        <time>2013-04-07T08:10:05Z</time>
      </trkpt>
      <trkpt lat="44.45663" lon="1.09852">
        <ele>245.75</ele>
        <time>2013-04-07T08:10:21Z</time>
      </trkpt>
      <trkpt lat="44.45731" lon="1.09804">
        <ele>244.79</ele>
        <time>2013-04-07T08:10:36Z</time>
      </trkpt>
      <trkpt lat="44.45792" lon="1.09772">
        <ele>241.43</ele>
        <time>2013-04-07T08:10:47Z</time>
      </trkpt>
      <trkpt lat="44.45845" lon="1.09751">
        <ele>237.58</ele>
        <time>2013-04-07T08:10:56Z</time>
      </trkpt>
      <trkpt lat="44.45865" lon="1.09731">
        <ele>237.1</ele>
        <time>2013-04-07T08:11:00Z</time>
      </trkpt>
      <trkpt lat="44.45919" lon="1.09615">
        <ele>233.74</ele>
        <time>2013-04-07T08:11:15Z</time>
      </trkpt>
      <trkpt lat="44.45967" lon="1.09484">
        <ele>229.89</ele>
        <time>2013-04-07T08:11:29Z</time>
      </trkpt>
      <trkpt lat="44.46045" lon="1.09373">
        <ele>223.64</ele>
        <time>2013-04-07T08:11:44Z</time>
      </trkpt>
      <trkpt lat="44.46064" lon="1.09347">
        <ele>222.68</ele>
        <time>2013-04-07T08:11:48Z</time>
      </trkpt>
      <trkpt lat="44.46085" lon="1.09323">
        <ele>221.72</ele>
        <time>2013-04-07T08:11:52Z</time>
      </trkpt>
      <trkpt lat="44.46113" lon="1.09306">
        <ele>220.28</ele>
        <time>2013-04-07T08:11:56Z</time>
      </trkpt>
      <trkpt lat="44.4623" lon="1.09284">
        <ele>216.91</ele>
        <time>2013-04-07T08:12:09Z</time>
      </trkpt>
      <trkpt lat="44.46306" lon="1.09267">
        <ele>220.76</ele>
        <time>2013-04-07T08:12:20Z</time>
      </trkpt>
      <trkpt lat="44.46342" lon="1.09251">
        <ele>223.16</ele>
        <time>2013-04-07T08:12:30Z</time>
      </trkpt>
      <trkpt lat="44.46392" lon="1.09227">
        <ele>226.05</ele>
        <time>2013-04-07T08:12:45Z</time>
      </trkpt>
      <trkpt lat="44.46445" lon="1.09204">
        <ele>229.41</ele>
        <time>2013-04-07T08:13:02Z</time>
      </trkpt>
      <trkpt lat="44.46467" lon="1.09188">
        <ele>230.37</ele>
        <time>2013-04-07T08:13:14Z</time>
      </trkpt>
      <trkpt lat="44.46489" lon="1.09154">
        <ele>231.33</ele>
        <time>2013-04-07T08:13:29Z</time>
      </trkpt>
      <trkpt lat="44.46527" lon="1.09087">
        <ele>233.26</ele>
        <time>2013-04-07T08:13:47Z</time>
      </trkpt>
      <trkpt lat="44.46568" lon="1.09005">
        <ele>234.22</ele>
        <time>2013-04-07T08:14:07Z</time>
      </trkpt>
      <trkpt lat="44.46571" lon="1.09005">
        <ele>234.22</ele>
        <time>2013-04-07T08:14:08Z</time>
      </trkpt>
      <trkpt lat="44.46573" lon="1.09006">
        <ele>234.7</ele>
        <time>2013-04-07T08:14:09Z</time>
      </trkpt>
      <trkpt lat="44.46576" lon="1.09009">
        <ele>234.7</ele>
        <time>2013-04-07T08:14:10Z</time>
      </trkpt>
      <trkpt lat="44.46578" lon="1.09011">
        <ele>235.18</ele>
        <time>2013-04-07T08:14:11Z</time>
      </trkpt>
      <trkpt lat="44.4658" lon="1.09015">
        <ele>235.66</ele>
        <time>2013-04-07T08:14:12Z</time>
      </trkpt>
      <trkpt lat="44.46583" lon="1.09018">
        <ele>235.66</ele>
        <time>2013-04-07T08:14:13Z</time>
      </trkpt>
      <trkpt lat="44.46591" lon="1.09029">
        <ele>237.1</ele>
        <time>2013-04-07T08:14:16Z</time>
      </trkpt>
      <trkpt lat="44.46595" lon="1.09033">
        <ele>237.58</ele>
        <time>2013-04-07T08:14:17Z</time>
      </trkpt>
      <trkpt lat="44.46613" lon="1.09054">
        <ele>239.51</ele>
        <time>2013-04-07T08:14:21Z</time>
      </trkpt>
      <trkpt lat="44.46617" lon="1.0906">
        <ele>239.51</ele>
        <time>2013-04-07T08:14:22Z</time>
      </trkpt>
      <trkpt lat="44.46621" lon="1.09065">
        <ele>239.51</ele>
        <time>2013-04-07T08:14:23Z</time>
      </trkpt>
      <trkpt lat="44.4665" lon="1.09103">
        <ele>240.95</ele>
        <time>2013-04-07T08:14:34Z</time>
      </trkpt>
      <trkpt lat="44.4668" lon="1.09135">
        <ele>241.43</ele>
        <time>2013-04-07T08:14:44Z</time>
      </trkpt>
      <trkpt lat="44.46683" lon="1.09141">
        <ele>240.95</ele>
        <time>2013-04-07T08:14:45Z</time>
      </trkpt>
      <trkpt lat="44.46693" lon="1.09161">
        <ele>239.99</ele>
        <time>2013-04-07T08:14:48Z</time>
      </trkpt>
      <trkpt lat="44.46697" lon="1.09167">
        <ele>239.02</ele>
        <time>2013-04-07T08:14:49Z</time>
      </trkpt>
      <trkpt lat="44.46701" lon="1.09173">
        <ele>238.54</ele>
        <time>2013-04-07T08:14:50Z</time>
      </trkpt>
      <trkpt lat="44.46705" lon="1.09178">
        <ele>238.06</ele>
        <time>2013-04-07T08:14:51Z</time>
      </trkpt>
      <trkpt lat="44.46709" lon="1.09181">
        <ele>237.58</ele>
        <time>2013-04-07T08:14:52Z</time>
      </trkpt>
      <trkpt lat="44.46714" lon="1.09186">
        <ele>237.1</ele>
        <time>2013-04-07T08:14:53Z</time>
      </trkpt>
      <trkpt lat="44.46718" lon="1.09192">
        <ele>236.14</ele>
        <time>2013-04-07T08:14:54Z</time>
      </trkpt>
      <trkpt lat="44.46722" lon="1.092">
        <ele>235.66</ele>
        <time>2013-04-07T08:14:55Z</time>
      </trkpt>
      <trkpt lat="44.46726" lon="1.09209">
        <ele>234.7</ele>
        <time>2013-04-07T08:14:56Z</time>
      </trkpt>
      <trkpt lat="44.46755" lon="1.09268">
        <ele>230.37</ele>
        <time>2013-04-07T08:15:04Z</time>
      </trkpt>
      <trkpt lat="44.46759" lon="1.09262">
        <ele>229.41</ele>
        <time>2013-04-07T08:15:06Z</time>
      </trkpt>
      <trkpt lat="44.46761" lon="1.09257">
        <ele>228.45</ele>
        <time>2013-04-07T08:15:07Z</time>
      </trkpt>
      <trkpt lat="44.46762" lon="1.0925">
        <ele>227.49</ele>
        <time>2013-04-07T08:15:08Z</time>
      </trkpt>
      <trkpt lat="44.46774" lon="1.0922">
        <ele>224.12</ele>
        <time>2013-04-07T08:15:12Z</time>
      </trkpt>
      <trkpt lat="44.46792" lon="1.09161">
        <ele>217.4</ele>
        <time>2013-04-07T08:15:19Z</time>
      </trkpt>
      <trkpt lat="44.46803" lon="1.09141">
        <ele>215.47</ele>
        <time>2013-04-07T08:15:21Z</time>
      </trkpt>
      <trkpt lat="44.46829" lon="1.09112">
        <ele>211.63</ele>
        <time>2013-04-07T08:15:25Z</time>
      </trkpt>
      <trkpt lat="44.46868" lon="1.09084">
        <ele>206.34</ele>
        <time>2013-04-07T08:15:32Z</time>
      </trkpt>
      <trkpt lat="44.46869" lon="1.09092">
        <ele>205.38</ele>
        <time>2013-04-07T08:15:36Z</time>
      </trkpt>
      <trkpt lat="44.46847" lon="1.09126">
        <ele>199.61</ele>
        <time>2013-04-07T08:15:42Z</time>
      </trkpt>
      <trkpt lat="44.46855" lon="1.09157">
        <ele>193.36</ele>
        <time>2013-04-07T08:15:48Z</time>
      </trkpt>
      <trkpt lat="44.46899" lon="1.09154">
        <ele>188.08</ele>
        <time>2013-04-07T08:15:53Z</time>
      </trkpt>
      <trkpt lat="44.46955" lon="1.09147">
        <ele>180.87</ele>
        <time>2013-04-07T08:15:59Z</time>
      </trkpt>
      <trkpt lat="44.46983" lon="1.09145">
        <ele>177.02</ele>
        <time>2013-04-07T08:16:02Z</time>
      </trkpt>
      <trkpt lat="44.47017" lon="1.09156">
        <ele>172.21</ele>
        <time>2013-04-07T08:16:06Z</time>
      </trkpt>
      <trkpt lat="44.47034" lon="1.09169">
        <ele>170.29</ele>
        <time>2013-04-07T08:16:08Z</time>
      </trkpt>
      <trkpt lat="44.4707" lon="1.09188">
        <ele>165.96</ele>
        <time>2013-04-07T08:16:12Z</time>
      </trkpt>
      <trkpt lat="44.47089" lon="1.09197">
        <ele>164.04</ele>
        <time>2013-04-07T08:16:14Z</time>
      </trkpt>
      <trkpt lat="44.47185" lon="1.09229">
        <ele>156.83</ele>
        <time>2013-04-07T08:16:23Z</time>
      </trkpt>
      <trkpt lat="44.47215" lon="1.09234">
        <ele>154.43</ele>
        <time>2013-04-07T08:16:26Z</time>
      </trkpt>
      <trkpt lat="44.47266" lon="1.09249">
        <ele>149.14</ele>
        <time>2013-04-07T08:16:31Z</time>
      </trkpt>
      <trkpt lat="44.47361" lon="1.09315">
        <ele>136.16</ele>
        <time>2013-04-07T08:16:41Z</time>
      </trkpt>
      <trkpt lat="44.47427" lon="1.09399">
        <ele>126.55</ele>
        <time>2013-04-07T08:16:49Z</time>
      </trkpt>
      <trkpt lat="44.47468" lon="1.09433">
        <ele>121.74</ele>
        <time>2013-04-07T08:16:57Z</time>
      </trkpt>
      <trkpt lat="44.47473" lon="1.09439">
        <ele>121.74</ele>
        <time>2013-04-07T08:16:59Z</time>
      </trkpt>
      <trkpt lat="44.47481" lon="1.09439">
        <ele>122.22</ele>
        <time>2013-04-07T08:17:03Z</time>
      </trkpt>
      <trkpt lat="44.47486" lon="1.0944">
        <ele>123.19</ele>
        <time>2013-04-07T08:17:06Z</time>
      </trkpt>
      <trkpt lat="44.47489" lon="1.0944">
        <ele>123.19</ele>
        <time>2013-04-07T08:17:07Z</time>
      </trkpt>
      <trkpt lat="44.47492" lon="1.09441">
        <ele>123.19</ele>
        <time>2013-04-07T08:17:08Z</time>
      </trkpt>
      <trkpt lat="44.47495" lon="1.09442">
        <ele>123.67</ele>
        <time>2013-04-07T08:17:09Z</time>
      </trkpt>
      <trkpt lat="44.47534" lon="1.09456">
        <ele>122.71</ele>
        <time>2013-04-07T08:17:23Z</time>
      </trkpt>
      <trkpt lat="44.47553" lon="1.0946">
        <ele>121.74</ele>
        <time>2013-04-07T08:17:28Z</time>
      </trkpt>
      <trkpt lat="44.47637" lon="1.09475">
        <ele>117.42</ele>
        <time>2013-04-07T08:17:44Z</time>
      </trkpt>
      <trkpt lat="44.47698" lon="1.09488">
        <ele>114.53</ele>
        <time>2013-04-07T08:17:54Z</time>
      </trkpt>
      <trkpt lat="44.47703" lon="1.09487">
        <ele>114.05</ele>
        <time>2013-04-07T08:17:55Z</time>
      </trkpt>
      <trkpt lat="44.47709" lon="1.09485">
        <ele>114.05</ele>
        <time>2013-04-07T08:17:56Z</time>
      </trkpt>
      <trkpt lat="44.47714" lon="1.09482">
        <ele>113.57</ele>
        <time>2013-04-07T08:17:57Z</time>
      </trkpt>
      <trkpt lat="44.47718" lon="1.09478">
        <ele>113.57</ele>
        <time>2013-04-07T08:17:58Z</time>
      </trkpt>
      <trkpt lat="44.47723" lon="1.09475">
        <ele>113.57</ele>
        <time>2013-04-07T08:17:59Z</time>
      </trkpt>
      <trkpt lat="44.47788" lon="1.09412">
        <ele>112.13</ele>
        <time>2013-04-07T08:18:15Z</time>
      </trkpt>
      <trkpt lat="44.47865" lon="1.09327">
        <ele>112.13</ele>
        <time>2013-04-07T08:18:34Z</time>
      </trkpt>
      <trkpt lat="44.4789" lon="1.09299">
        <ele>112.13</ele>
        <time>2013-04-07T08:18:44Z</time>
      </trkpt>
      <trkpt lat="44.47891" lon="1.09296">
        <ele>112.13</ele>
        <time>2013-04-07T08:18:45Z</time>
      </trkpt>
      <trkpt lat="44.47891" lon="1.09292">
        <ele>112.13</ele>
        <time>2013-04-07T08:18:46Z</time>
      </trkpt>
      <trkpt lat="44.4789" lon="1.09288">
        <ele>112.13</ele>
        <time>2013-04-07T08:18:47Z</time>
      </trkpt>
      <trkpt lat="44.47889" lon="1.09284">
        <ele>112.13</ele>
        <time>2013-04-07T08:18:48Z</time>
      </trkpt>
      <trkpt lat="44.47887" lon="1.09281">
        <ele>112.13</ele>
        <time>2013-04-07T08:18:49Z</time>
      </trkpt>
      <trkpt lat="44.47874" lon="1.09217">
        <ele>113.57</ele>
        <time>2013-04-07T08:19:03Z</time>
      </trkpt>
      <trkpt lat="44.4785" lon="1.0912">
        <ele>116.46</ele>
        <time>2013-04-07T08:19:21Z</time>
      </trkpt>
      <trkpt lat="44.47833" lon="1.09051">
        <ele>120.78</ele>
        <time>2013-04-07T08:19:37Z</time>
      </trkpt>
      <trkpt lat="44.47832" lon="1.09044">
        <ele>120.78</ele>
        <time>2013-04-07T08:19:40Z</time>
      </trkpt>
      <trkpt lat="44.47834" lon="1.09042">
        <ele>121.26</ele>
        <time>2013-04-07T08:19:41Z</time>
      </trkpt>
      <trkpt lat="44.47838" lon="1.09038">
        <ele>121.74</ele>
        <time>2013-04-07T08:19:43Z</time>
      </trkpt>
      <trkpt lat="44.4786" lon="1.09002">
        <ele>125.11</ele>
        <time>2013-04-07T08:19:57Z</time>
      </trkpt>
      <trkpt lat="44.47879" lon="1.08961">
        <ele>126.07</ele>
        <time>2013-04-07T08:20:10Z</time>
      </trkpt>
      <trkpt lat="44.47887" lon="1.08938">
        <ele>125.11</ele>
        <time>2013-04-07T08:20:17Z</time>
      </trkpt>
      <trkpt lat="44.47921" lon="1.08868">
        <ele>123.67</ele>
        <time>2013-04-07T08:20:33Z</time>
      </trkpt>
      <trkpt lat="44.47946" lon="1.08817">
        <ele>124.15</ele>
        <time>2013-04-07T08:20:44Z</time>
      </trkpt>
      <trkpt lat="44.47958" lon="1.08798">
        <ele>124.63</ele>
        <time>2013-04-07T08:20:48Z</time>
      </trkpt>
      <trkpt lat="44.47963" lon="1.08787">
        <ele>124.63</ele>
        <time>2013-04-07T08:20:50Z</time>
      </trkpt>
      <trkpt lat="44.47968" lon="1.08776">
        <ele>124.15</ele>
        <time>2013-04-07T08:20:52Z</time>
      </trkpt>
      <trkpt lat="44.48019" lon="1.08688">
        <ele>122.71</ele>
        <time>2013-04-07T08:21:08Z</time>
      </trkpt>
      <trkpt lat="44.48039" lon="1.08653">
        <ele>122.22</ele>
        <time>2013-04-07T08:21:16Z</time>
      </trkpt>
      <trkpt lat="44.48072" lon="1.08596">
        <ele>122.22</ele>
        <time>2013-04-07T08:21:29Z</time>
      </trkpt>
      <trkpt lat="44.48078" lon="1.08587">
        <ele>122.71</ele>
        <time>2013-04-07T08:21:31Z</time>
      </trkpt>
      <trkpt lat="44.48128" lon="1.085">
        <ele>125.59</ele>
        <time>2013-04-07T08:21:48Z</time>
      </trkpt>
      <trkpt lat="44.48179" lon="1.08414">
        <ele>127.51</ele>
        <time>2013-04-07T08:22:03Z</time>
      </trkpt>
      <trkpt lat="44.48214" lon="1.08337">
        <ele>128.95</ele>
        <time>2013-04-07T08:22:17Z</time>
      </trkpt>
      <trkpt lat="44.48219" lon="1.08285">
        <ele>131.36</ele>
        <time>2013-04-07T08:22:29Z</time>
      </trkpt>
      <trkpt lat="44.48194" lon="1.08254">
        <ele>135.2</ele>
        <time>2013-04-07T08:22:40Z</time>
      </trkpt>
      <trkpt lat="44.48167" lon="1.08229">
        <ele>137.13</ele>
        <time>2013-04-07T08:22:49Z</time>
      </trkpt>
      <trkpt lat="44.48168" lon="1.08192">
        <ele>136.64</ele>
        <time>2013-04-07T08:22:57Z</time>
      </trkpt>
      <trkpt lat="44.48174" lon="1.08185">
        <ele>136.64</ele>
        <time>2013-04-07T08:23:00Z</time>
      </trkpt>
      <trkpt lat="44.48182" lon="1.08177">
        <ele>138.09</ele>
        <time>2013-04-07T08:23:04Z</time>
      </trkpt>
      <trkpt lat="44.48193" lon="1.08166">
        <ele>140.01</ele>
        <time>2013-04-07T08:23:10Z</time>
      </trkpt>
      <trkpt lat="44.48218" lon="1.08134">
        <ele>142.89</ele>
        <time>2013-04-07T08:23:24Z</time>
      </trkpt>
      <trkpt lat="44.48218" lon="1.08132">
        <ele>142.89</ele>
        <time>2013-04-07T08:23:25Z</time>
      </trkpt>
      <trkpt lat="44.48203" lon="1.08097">
        <ele>144.34</ele>
        <time>2013-04-07T08:23:38Z</time>
      </trkpt>
      <trkpt lat="44.48187" lon="1.08082">
        <ele>146.26</ele>
        <time>2013-04-07T08:23:52Z</time>
      </trkpt>
      <trkpt lat="44.48174" lon="1.08067">
        <ele>146.74</ele>
        <time>2013-04-07T08:24:06Z</time>
      </trkpt>
      <trkpt lat="44.48139" lon="1.08041">
        <ele>146.74</ele>
        <time>2013-04-07T08:24:15Z</time>
      </trkpt>
      <trkpt lat="44.48089" lon="1.08019">
        <ele>145.78</ele>
        <time>2013-04-07T08:24:24Z</time>
      </trkpt>
      <trkpt lat="44.48041" lon="1.07995">
        <ele>145.78</ele>
        <time>2013-04-07T08:24:36Z</time>
      </trkpt>
      <trkpt lat="44.48011" lon="1.07971">
        <ele>143.37</ele>
        <time>2013-04-07T08:24:44Z</time>
      </trkpt>
      <trkpt lat="44.48004" lon="1.07943">
        <ele>140.49</ele>
        <time>2013-04-07T08:24:49Z</time>
      </trkpt>
      <trkpt lat="44.48037" lon="1.07828">
        <ele>133.28</ele>
        <time>2013-04-07T08:25:01Z</time>
      </trkpt>
      <trkpt lat="44.48026" lon="1.07793">
        <ele>131.36</ele>
        <time>2013-04-07T08:25:06Z</time>
      </trkpt>
      <trkpt lat="44.47996" lon="1.07768">
        <ele>130.4</ele>
        <time>2013-04-07T08:25:12Z</time>
      </trkpt>
      <trkpt lat="44.47982" lon="1.0775">
        <ele>129.43</ele>
        <time>2013-04-07T08:25:16Z</time>
      </trkpt>
      <trkpt lat="44.47982" lon="1.07744">
        <ele>129.43</ele>
        <time>2013-04-07T08:25:17Z</time>
      </trkpt>
      <trkpt lat="44.47985" lon="1.07738">
        <ele>129.43</ele>
        <time>2013-04-07T08:25:18Z</time>
      </trkpt>
      <trkpt lat="44.47988" lon="1.07733">
        <ele>129.43</ele>
        <time>2013-04-07T08:25:19Z</time>
      </trkpt>
      <trkpt lat="44.47991" lon="1.07727">
        <ele>129.43</ele>
        <time>2013-04-07T08:25:20Z</time>
      </trkpt>
      <trkpt lat="44.47993" lon="1.0772">
        <ele>129.43</ele>
        <time>2013-04-07T08:25:21Z</time>
      </trkpt>
      <trkpt lat="44.48041" lon="1.07583">
        <ele>125.59</ele>
        <time>2013-04-07T08:25:39Z</time>
      </trkpt>
      <trkpt lat="44.48082" lon="1.07464">
        <ele>123.67</ele>
        <time>2013-04-07T08:25:55Z</time>
      </trkpt>
      <trkpt lat="44.48126" lon="1.07341">
        <ele>119.82</ele>
        <time>2013-04-07T08:26:11Z</time>
      </trkpt>
      <trkpt lat="44.48147" lon="1.07282">
        <ele>117.42</ele>
        <time>2013-04-07T08:26:21Z</time>
      </trkpt>
      <trkpt lat="44.48147" lon="1.07277">
        <ele>117.42</ele>
        <time>2013-04-07T08:26:22Z</time>
      </trkpt>
      <trkpt lat="44.48145" lon="1.07273">
        <ele>116.94</ele>
        <time>2013-04-07T08:26:23Z</time>
      </trkpt>
      <trkpt lat="44.48143" lon="1.07268">
        <ele>116.94</ele>
        <time>2013-04-07T08:26:24Z</time>
      </trkpt>
      <trkpt lat="44.4814" lon="1.07264">
        <ele>116.46</ele>
        <time>2013-04-07T08:26:25Z</time>
      </trkpt>
      <trkpt lat="44.48088" lon="1.07209">
        <ele>116.46</ele>
        <time>2013-04-07T08:26:37Z</time>
      </trkpt>
      <trkpt lat="44.48059" lon="1.0719">
        <ele>118.38</ele>
        <time>2013-04-07T08:26:43Z</time>
      </trkpt>
      <trkpt lat="44.48003" lon="1.07154">
        <ele>120.78</ele>
        <time>2013-04-07T08:26:56Z</time>
      </trkpt>
      <trkpt lat="44.47916" lon="1.07104">
        <ele>121.26</ele>
        <time>2013-04-07T08:27:13Z</time>
      </trkpt>
      <trkpt lat="44.47827" lon="1.0705">
        <ele>118.86</ele>
        <time>2013-04-07T08:27:28Z</time>
      </trkpt>
      <trkpt lat="44.47768" lon="1.06998">
        <ele>120.78</ele>
        <time>2013-04-07T08:27:42Z</time>
      </trkpt>
      <trkpt lat="44.47763" lon="1.06991">
        <ele>121.26</ele>
        <time>2013-04-07T08:27:45Z</time>
      </trkpt>
      <trkpt lat="44.47763" lon="1.06989">
        <ele>121.26</ele>
        <time>2013-04-07T08:27:46Z</time>
      </trkpt>
      <trkpt lat="44.47768" lon="1.06975">
        <ele>120.78</ele>
        <time>2013-04-07T08:27:50Z</time>
      </trkpt>
      <trkpt lat="44.47788" lon="1.06927">
        <ele>115.5</ele>
        <time>2013-04-07T08:27:59Z</time>
      </trkpt>
      <trkpt lat="44.47811" lon="1.0691">
        <ele>112.61</ele>
        <time>2013-04-07T08:28:05Z</time>
      </trkpt>
      <trkpt lat="44.47816" lon="1.06902">
        <ele>112.13</ele>
        <time>2013-04-07T08:28:07Z</time>
      </trkpt>
      <trkpt lat="44.47819" lon="1.06891">
        <ele>111.17</ele>
        <time>2013-04-07T08:28:09Z</time>
      </trkpt>
      <trkpt lat="44.47824" lon="1.06857">
        <ele>110.21</ele>
        <time>2013-04-07T08:28:16Z</time>
      </trkpt>
      <trkpt lat="44.47841" lon="1.06834">
        <ele>115.01</ele>
        <time>2013-04-07T08:28:28Z</time>
      </trkpt>
      <trkpt lat="44.47865" lon="1.06827">
        <ele>121.26</ele>
        <time>2013-04-07T08:28:41Z</time>
      </trkpt>
      <trkpt lat="44.47888" lon="1.06829">
        <ele>126.55</ele>
        <time>2013-04-07T08:28:55Z</time>
      </trkpt>
      <trkpt lat="44.47914" lon="1.06813">
        <ele>128.95</ele>
        <time>2013-04-07T08:29:08Z</time>
      </trkpt>
      <trkpt lat="44.47937" lon="1.06794">
        <ele>131.84</ele>
        <time>2013-04-07T08:29:20Z</time>
      </trkpt>
      <trkpt lat="44.47963" lon="1.06779">
        <ele>131.84</ele>
        <time>2013-04-07T08:29:34Z</time>
      </trkpt>
      <trkpt lat="44.47989" lon="1.06757">
        <ele>130.88</ele>
        <time>2013-04-07T08:29:47Z</time>
      </trkpt>
      <trkpt lat="44.48026" lon="1.06725">
        <ele>131.84</ele>
        <time>2013-04-07T08:30:05Z</time>
      </trkpt>
      <trkpt lat="44.48064" lon="1.067">
        <ele>135.2</ele>
        <time>2013-04-07T08:30:23Z</time>
      </trkpt>
      <trkpt lat="44.48084" lon="1.06683">
        <ele>135.68</ele>
        <time>2013-04-07T08:30:34Z</time>
      </trkpt>
      <trkpt lat="44.48072" lon="1.06643">
        <ele>135.68</ele>
        <time>2013-04-07T08:30:47Z</time>
      </trkpt>
      <trkpt lat="44.48053" lon="1.06592">
        <ele>136.16</ele>
        <time>2013-04-07T08:30:59Z</time>
      </trkpt>
      <trkpt lat="44.4804" lon="1.06557">
        <ele>134.24</ele>
        <time>2013-04-07T08:31:08Z</time>
      </trkpt>
      <trkpt lat="44.48047" lon="1.06488">
        <ele>132.32</ele>
        <time>2013-04-07T08:31:22Z</time>
      </trkpt>
      <trkpt lat="44.48054" lon="1.06437">
        <ele>131.36</ele>
        <time>2013-04-07T08:31:30Z</time>
      </trkpt>
      <trkpt lat="44.4807" lon="1.06374">
        <ele>128.47</ele>
        <time>2013-04-07T08:31:38Z</time>
      </trkpt>
      <trkpt lat="44.48072" lon="1.0636">
        <ele>127.51</ele>
        <time>2013-04-07T08:31:40Z</time>
      </trkpt>
      <trkpt lat="44.48069" lon="1.0631">
        <ele>123.67</ele>
        <time>2013-04-07T08:31:47Z</time>
      </trkpt>
      <trkpt lat="44.48064" lon="1.06286">
        <ele>122.22</ele>
        <time>2013-04-07T08:31:50Z</time>
      </trkpt>
      <trkpt lat="44.48014" lon="1.06212">
        <ele>122.71</ele>
        <time>2013-04-07T08:32:01Z</time>
      </trkpt>
      <trkpt lat="44.48001" lon="1.06192">
        <ele>123.67</ele>
        <time>2013-04-07T08:32:04Z</time>
      </trkpt>
      <trkpt lat="44.47992" lon="1.06158">
        <ele>124.15</ele>
        <time>2013-04-07T08:32:08Z</time>
      </trkpt>
      <trkpt lat="44.47989" lon="1.06042">
        <ele>121.26</ele>
        <time>2013-04-07T08:32:20Z</time>
      </trkpt>
      <trkpt lat="44.47991" lon="1.0601">
        <ele>121.26</ele>
        <time>2013-04-07T08:32:24Z</time>
      </trkpt>
      <trkpt lat="44.47998" lon="1.05974">
        <ele>120.3</ele>
        <time>2013-04-07T08:32:28Z</time>
      </trkpt>
      <trkpt lat="44.48004" lon="1.05944">
        <ele>119.34</ele>
        <time>2013-04-07T08:32:31Z</time>
      </trkpt>
      <trkpt lat="44.48002" lon="1.05898">
        <ele>118.86</ele>
        <time>2013-04-07T08:32:37Z</time>
      </trkpt>
      <trkpt lat="44.48004" lon="1.05847">
        <ele>121.26</ele>
        <time>2013-04-07T08:32:47Z</time>
      </trkpt>
      <trkpt lat="44.48005" lon="1.05842">
        <ele>121.74</ele>
        <time>2013-04-07T08:32:48Z</time>
      </trkpt>
      <trkpt lat="44.48005" lon="1.05813">
        <ele>121.26</ele>
        <time>2013-04-07T08:32:54Z</time>
      </trkpt>
      <trkpt lat="44.48" lon="1.05764">
        <ele>117.9</ele>
        <time>2013-04-07T08:33:04Z</time>
      </trkpt>
      <trkpt lat="44.47999" lon="1.05736">
        <ele>115.5</ele>
        <time>2013-04-07T08:33:11Z</time>
      </trkpt>
      <trkpt lat="44.47998" lon="1.05723">
        <ele>114.53</ele>
        <time>2013-04-07T08:33:14Z</time>
      </trkpt>
      <trkpt lat="44.47971" lon="1.05721">
        <ele>111.65</ele>
        <time>2013-04-07T08:33:21Z</time>
      </trkpt>
      <trkpt lat="44.4796" lon="1.05725">
        <ele>111.17</ele>
        <time>2013-04-07T08:33:23Z</time>
      </trkpt>
      <trkpt lat="44.47943" lon="1.05727">
        <ele>109.25</ele>
        <time>2013-04-07T08:33:26Z</time>
      </trkpt>
      <trkpt lat="44.47886" lon="1.05712">
        <ele>99.63</ele>
        <time>2013-04-07T08:33:36Z</time>
      </trkpt>
      <trkpt lat="44.47859" lon="1.05683">
        <ele>93.87</ele>
        <time>2013-04-07T08:33:44Z</time>
      </trkpt>
      <trkpt lat="44.47859" lon="1.05681">
        <ele>93.87</ele>
        <time>2013-04-07T08:33:45Z</time>
      </trkpt>
      <trkpt lat="44.4786" lon="1.05679">
        <ele>93.87</ele>
        <time>2013-04-07T08:33:46Z</time>
      </trkpt>
      <trkpt lat="44.47861" lon="1.05678">
        <ele>93.87</ele>
        <time>2013-04-07T08:33:47Z</time>
      </trkpt>
      <trkpt lat="44.47862" lon="1.05676">
        <ele>93.87</ele>
        <time>2013-04-07T08:33:48Z</time>
      </trkpt>
      <trkpt lat="44.47863" lon="1.05675">
        <ele>93.39</ele>
        <time>2013-04-07T08:33:49Z</time>
      </trkpt>
      <trkpt lat="44.47864" lon="1.05673">
        <ele>93.39</ele>
        <time>2013-04-07T08:33:50Z</time>
      </trkpt>
      <trkpt lat="44.47864" lon="1.05672">
        <ele>92.9</ele>
        <time>2013-04-07T08:34:01Z</time>
      </trkpt>
      <trkpt lat="44.47862" lon="1.05668">
        <ele>93.87</ele>
        <time>2013-04-07T08:34:20Z</time>
      </trkpt>
      <trkpt lat="44.47859" lon="1.05668">
        <ele>96.27</ele>
        <time>2013-04-07T08:34:46Z</time>
      </trkpt>
      <trkpt lat="44.4787" lon="1.05645">
        <ele>94.83</ele>
        <time>2013-04-07T08:34:59Z</time>
      </trkpt>
      <trkpt lat="44.47895" lon="1.05575">
        <ele>91.46</ele>
        <time>2013-04-07T08:35:15Z</time>
      </trkpt>
      <trkpt lat="44.47888" lon="1.05536">
        <ele>90.02</ele>
        <time>2013-04-07T08:35:25Z</time>
      </trkpt>
      <trkpt lat="44.47882" lon="1.05528">
        <ele>89.54</ele>
        <time>2013-04-07T08:35:27Z</time>
      </trkpt>
      <trkpt lat="44.47873" lon="1.05515">
        <ele>89.06</ele>
        <time>2013-04-07T08:35:30Z</time>
      </trkpt>
      <trkpt lat="44.47865" lon="1.05492">
        <ele>88.58</ele>
        <time>2013-04-07T08:35:34Z</time>
      </trkpt>
      <trkpt lat="44.47885" lon="1.05415">
        <ele>85.69</ele>
        <time>2013-04-07T08:35:46Z</time>
      </trkpt>
      <trkpt lat="44.47883" lon="1.05405">
        <ele>85.21</ele>
        <time>2013-04-07T08:35:49Z</time>
      </trkpt>
      <trkpt lat="44.4788" lon="1.05403">
        <ele>85.21</ele>
        <time>2013-04-07T08:35:50Z</time>
      </trkpt>
      <trkpt lat="44.47877" lon="1.05402">
        <ele>85.21</ele>
        <time>2013-04-07T08:35:51Z</time>
      </trkpt>
      <trkpt lat="44.47875" lon="1.05403">
        <ele>85.21</ele>
        <time>2013-04-07T08:35:52Z</time>
      </trkpt>
      <trkpt lat="44.47873" lon="1.05404">
        <ele>85.21</ele>
        <time>2013-04-07T08:35:53Z</time>
      </trkpt>
      <trkpt lat="44.4787" lon="1.05406">
        <ele>84.73</ele>
        <time>2013-04-07T08:35:54Z</time>
      </trkpt>
      <trkpt lat="44.47827" lon="1.05435">
        <ele>86.66</ele>
        <time>2013-04-07T08:36:12Z</time>
      </trkpt>
      <trkpt lat="44.47787" lon="1.05461">
        <ele>91.94</ele>
        <time>2013-04-07T08:36:29Z</time>
      </trkpt>
      <trkpt lat="44.47761" lon="1.05472">
        <ele>98.67</ele>
        <time>2013-04-07T08:36:42Z</time>
      </trkpt>
      <trkpt lat="44.47733" lon="1.05473">
        <ele>103.96</ele>
        <time>2013-04-07T08:36:55Z</time>
      </trkpt>
      <trkpt lat="44.477" lon="1.05472">
        <ele>108.77</ele>
        <time>2013-04-07T08:37:09Z</time>
      </trkpt>
      <trkpt lat="44.47681" lon="1.05454">
        <ele>112.61</ele>
        <time>2013-04-07T08:37:20Z</time>
      </trkpt>
      <trkpt lat="44.4768" lon="1.05414">
        <ele>114.53</ele>
        <time>2013-04-07T08:37:32Z</time>
      </trkpt>
      <trkpt lat="44.47681" lon="1.05374">
        <ele>111.65</ele>
        <time>2013-04-07T08:37:45Z</time>
      </trkpt>
      <trkpt lat="44.47682" lon="1.05372">
        <ele>111.17</ele>
        <time>2013-04-07T08:37:46Z</time>
      </trkpt>
      <trkpt lat="44.47682" lon="1.0537">
        <ele>111.65</ele>
        <time>2013-04-07T08:37:47Z</time>
      </trkpt>
      <trkpt lat="44.47682" lon="1.05368">
        <ele>111.65</ele>
        <time>2013-04-07T08:37:48Z</time>
      </trkpt>
      <trkpt lat="44.47683" lon="1.05365">
        <ele>111.17</ele>
        <time>2013-04-07T08:37:49Z</time>
      </trkpt>
      <trkpt lat="44.47684" lon="1.05363">
        <ele>111.17</ele>
        <time>2013-04-07T08:37:50Z</time>
      </trkpt>
      <trkpt lat="44.47685" lon="1.05361">
        <ele>111.17</ele>
        <time>2013-04-07T08:37:51Z</time>
      </trkpt>
      <trkpt lat="44.47686" lon="1.05358">
        <ele>111.17</ele>
        <time>2013-04-07T08:37:52Z</time>
      </trkpt>
      <trkpt lat="44.47711" lon="1.05307">
        <ele>111.17</ele>
        <time>2013-04-07T08:38:10Z</time>
      </trkpt>
      <trkpt lat="44.47733" lon="1.05262">
        <ele>112.13</ele>
        <time>2013-04-07T08:38:25Z</time>
      </trkpt>
      <trkpt lat="44.47754" lon="1.05219">
        <ele>116.46</ele>
        <time>2013-04-07T08:38:40Z</time>
      </trkpt>
      <trkpt lat="44.47774" lon="1.05181">
        <ele>119.34</ele>
        <time>2013-04-07T08:38:54Z</time>
      </trkpt>
      <trkpt lat="44.478" lon="1.05146">
        <ele>124.63</ele>
        <time>2013-04-07T08:39:09Z</time>
      </trkpt>
      <trkpt lat="44.4783" lon="1.05105">
        <ele>127.03</ele>
        <time>2013-04-07T08:39:27Z</time>
      </trkpt>
      <trkpt lat="44.47831" lon="1.05081">
        <ele>127.51</ele>
        <time>2013-04-07T08:39:37Z</time>
      </trkpt>
      <trkpt lat="44.4783" lon="1.05079">
        <ele>127.51</ele>
        <time>2013-04-07T08:39:38Z</time>
      </trkpt>
      <trkpt lat="44.47829" lon="1.05077">
        <ele>127.51</ele>
        <time>2013-04-07T08:39:39Z</time>
      </trkpt>
      <trkpt lat="44.4781" lon="1.05055">
        <ele>131.36</ele>
        <time>2013-04-07T08:39:51Z</time>
      </trkpt>
      <trkpt lat="44.47786" lon="1.05021">
        <ele>134.72</ele>
        <time>2013-04-07T08:40:05Z</time>
      </trkpt>
      <trkpt lat="44.47765" lon="1.04994">
        <ele>135.68</ele>
        <time>2013-04-07T08:40:18Z</time>
      </trkpt>
      <trkpt lat="44.47749" lon="1.04965">
        <ele>135.68</ele>
        <time>2013-04-07T08:40:29Z</time>
      </trkpt>
      <trkpt lat="44.47738" lon="1.04933">
        <ele>137.61</ele>
        <time>2013-04-07T08:40:41Z</time>
      </trkpt>
      <trkpt lat="44.47713" lon="1.04903">
        <ele>138.09</ele>
        <time>2013-04-07T08:40:54Z</time>
      </trkpt>
      <trkpt lat="44.47685" lon="1.04877">
        <ele>137.61</ele>
        <time>2013-04-07T08:41:08Z</time>
      </trkpt>
      <trkpt lat="44.4766" lon="1.0484">
        <ele>137.61</ele>
        <time>2013-04-07T08:41:24Z</time>
      </trkpt>
      <trkpt lat="44.47648" lon="1.04804">
        <ele>137.13</ele>
        <time>2013-04-07T08:41:37Z</time>
      </trkpt>
      <trkpt lat="44.47631" lon="1.04758">
        <ele>138.09</ele>
        <time>2013-04-07T08:41:52Z</time>
      </trkpt>
      <trkpt lat="44.47611" lon="1.04733">
        <ele>138.09</ele>
        <time>2013-04-07T08:42:03Z</time>
      </trkpt>
      <trkpt lat="44.47585" lon="1.04703">
        <ele>137.61</ele>
        <time>2013-04-07T08:42:16Z</time>
      </trkpt>
      <trkpt lat="44.47559" lon="1.04688">
        <ele>137.13</ele>
        <time>2013-04-07T08:42:29Z</time>
      </trkpt>
      <trkpt lat="44.47537" lon="1.04702">
        <ele>137.13</ele>
        <time>2013-04-07T08:42:41Z</time>
      </trkpt>
      <trkpt lat="44.47516" lon="1.04717">
        <ele>137.13</ele>
        <time>2013-04-07T08:42:54Z</time>
      </trkpt>
      <trkpt lat="44.47494" lon="1.04703">
        <ele>137.13</ele>
        <time>2013-04-07T08:43:05Z</time>
      </trkpt>
      <trkpt lat="44.47486" lon="1.04658">
        <ele>137.13</ele>
        <time>2013-04-07T08:43:18Z</time>
      </trkpt>
      <trkpt lat="44.47484" lon="1.04639">
        <ele>137.13</ele>
        <time>2013-04-07T08:43:23Z</time>
      </trkpt>
      <trkpt lat="44.47483" lon="1.04635">
        <ele>137.13</ele>
        <time>2013-04-07T08:43:24Z</time>
      </trkpt>
      <trkpt lat="44.47486" lon="1.04578">
        <ele>137.13</ele>
        <time>2013-04-07T08:43:37Z</time>
      </trkpt>
      <trkpt lat="44.47482" lon="1.04525">
        <ele>137.13</ele>
        <time>2013-04-07T08:43:50Z</time>
      </trkpt>
      <trkpt lat="44.47459" lon="1.04482">
        <ele>136.64</ele>
        <time>2013-04-07T08:44:04Z</time>
      </trkpt>
      <trkpt lat="44.47434" lon="1.04467">
        <ele>136.64</ele>
        <time>2013-04-07T08:44:16Z</time>
      </trkpt>
      <trkpt lat="44.47417" lon="1.04493">
        <ele>136.64</ele>
        <time>2013-04-07T08:44:28Z</time>
      </trkpt>
      <trkpt lat="44.474" lon="1.04531">
        <ele>137.13</ele>
        <time>2013-04-07T08:44:41Z</time>
      </trkpt>
      <trkpt lat="44.47384" lon="1.04578">
        <ele>137.61</ele>
        <time>2013-04-07T08:44:56Z</time>
      </trkpt>
      <trkpt lat="44.4737" lon="1.04624">
        <ele>138.09</ele>
        <time>2013-04-07T08:45:11Z</time>
      </trkpt>
      <trkpt lat="44.47393" lon="1.04677">
        <ele>192.4</ele>
        <time>2013-04-07T08:45:30Z</time>
      </trkpt>
      <trkpt lat="44.47386" lon="1.04737">
        <ele>196.25</ele>
        <time>2013-04-07T08:45:48Z</time>
      </trkpt>
      <trkpt lat="44.47378" lon="1.04786">
        <ele>198.65</ele>
        <time>2013-04-07T08:46:03Z</time>
      </trkpt>
      <trkpt lat="44.47361" lon="1.0484">
        <ele>202.49</ele>
        <time>2013-04-07T08:46:21Z</time>
      </trkpt>
      <trkpt lat="44.47344" lon="1.04878">
        <ele>205.86</ele>
        <time>2013-04-07T08:46:35Z</time>
      </trkpt>
      <trkpt lat="44.47342" lon="1.0488">
        <ele>205.86</ele>
        <time>2013-04-07T08:46:36Z</time>
      </trkpt>
      <trkpt lat="44.47341" lon="1.04883">
        <ele>205.86</ele>
        <time>2013-04-07T08:46:37Z</time>
      </trkpt>
      <trkpt lat="44.4734" lon="1.04886">
        <ele>205.86</ele>
        <time>2013-04-07T08:46:38Z</time>
      </trkpt>
      <trkpt lat="44.47339" lon="1.0489">
        <ele>206.34</ele>
        <time>2013-04-07T08:46:39Z</time>
      </trkpt>
      <trkpt lat="44.47337" lon="1.04893">
        <ele>206.34</ele>
        <time>2013-04-07T08:46:40Z</time>
      </trkpt>
      <trkpt lat="44.4731" lon="1.04948">
        <ele>210.67</ele>
        <time>2013-04-07T08:46:59Z</time>
      </trkpt>
      <trkpt lat="44.4728" lon="1.04972">
        <ele>213.55</ele>
        <time>2013-04-07T08:47:14Z</time>
      </trkpt>
      <trkpt lat="44.47248" lon="1.04992">
        <ele>216.43</ele>
        <time>2013-04-07T08:47:29Z</time>
      </trkpt>
      <trkpt lat="44.47213" lon="1.05013">
        <ele>219.32</ele>
        <time>2013-04-07T08:47:46Z</time>
      </trkpt>
      <trkpt lat="44.47171" lon="1.0504">
        <ele>223.64</ele>
        <time>2013-04-07T08:48:06Z</time>
      </trkpt>
      <trkpt lat="44.47159" lon="1.05045">
        <ele>224.61</ele>
        <time>2013-04-07T08:48:15Z</time>
      </trkpt>
      <trkpt lat="44.47158" lon="1.05045">
        <ele>225.09</ele>
        <time>2013-04-07T08:48:16Z</time>
      </trkpt>
      <trkpt lat="44.47157" lon="1.05045">
        <ele>225.09</ele>
        <time>2013-04-07T08:48:17Z</time>
      </trkpt>
      <trkpt lat="44.47156" lon="1.05046">
        <ele>225.09</ele>
        <time>2013-04-07T08:48:18Z</time>
      </trkpt>
      <trkpt lat="44.47155" lon="1.05046">
        <ele>225.57</ele>
        <time>2013-04-07T08:48:19Z</time>
      </trkpt>
      <trkpt lat="44.47153" lon="1.05047">
        <ele>225.09</ele>
        <time>2013-04-07T08:48:32Z</time>
      </trkpt>
      <trkpt lat="44.47152" lon="1.05049">
        <ele>224.61</ele>
        <time>2013-04-07T08:48:53Z</time>
      </trkpt>
      <trkpt lat="44.47151" lon="1.05048">
        <ele>223.64</ele>
        <time>2013-04-07T08:49:02Z</time>
      </trkpt>
      <trkpt lat="44.4715" lon="1.05047">
        <ele>224.12</ele>
        <time>2013-04-07T08:49:03Z</time>
      </trkpt>
      <trkpt lat="44.47148" lon="1.05046">
        <ele>224.12</ele>
        <time>2013-04-07T08:49:04Z</time>
      </trkpt>
      <trkpt lat="44.47147" lon="1.05045">
        <ele>224.61</ele>
        <time>2013-04-07T08:49:05Z</time>
      </trkpt>
      <trkpt lat="44.47145" lon="1.05044">
        <ele>224.61</ele>
        <time>2013-04-07T08:49:06Z</time>
      </trkpt>
      <trkpt lat="44.47142" lon="1.05043">
        <ele>224.61</ele>
        <time>2013-04-07T08:49:07Z</time>
      </trkpt>
      <trkpt lat="44.47104" lon="1.05009">
        <ele>227.49</ele>
        <time>2013-04-07T08:49:20Z</time>
      </trkpt>
      <trkpt lat="44.4704" lon="1.04955">
        <ele>230.85</ele>
        <time>2013-04-07T08:49:38Z</time>
      </trkpt>
      <trkpt lat="44.46972" lon="1.04902">
        <ele>229.89</ele>
        <time>2013-04-07T08:49:53Z</time>
      </trkpt>
      <trkpt lat="44.46924" lon="1.04863">
        <ele>227.97</ele>
        <time>2013-04-07T08:50:02Z</time>
      </trkpt>
      <trkpt lat="44.46919" lon="1.04857">
        <ele>227.97</ele>
        <time>2013-04-07T08:50:03Z</time>
      </trkpt>
      <trkpt lat="44.46915" lon="1.0485">
        <ele>227.49</ele>
        <time>2013-04-07T08:50:04Z</time>
      </trkpt>
      <trkpt lat="44.46912" lon="1.04841">
        <ele>227.49</ele>
        <time>2013-04-07T08:50:05Z</time>
      </trkpt>
      <trkpt lat="44.46909" lon="1.04832">
        <ele>227.01</ele>
        <time>2013-04-07T08:50:06Z</time>
      </trkpt>
      <trkpt lat="44.46863" lon="1.04729">
        <ele>226.05</ele>
        <time>2013-04-07T08:50:17Z</time>
      </trkpt>
      <trkpt lat="44.46824" lon="1.04702">
        <ele>225.09</ele>
        <time>2013-04-07T08:50:23Z</time>
      </trkpt>
      <trkpt lat="44.46772" lon="1.04675">
        <ele>220.76</ele>
        <time>2013-04-07T08:50:30Z</time>
      </trkpt>
      <trkpt lat="44.46754" lon="1.04662">
        <ele>218.36</ele>
        <time>2013-04-07T08:50:34Z</time>
      </trkpt>
      <trkpt lat="44.46753" lon="1.04657">
        <ele>217.88</ele>
        <time>2013-04-07T08:50:35Z</time>
      </trkpt>
      <trkpt lat="44.46753" lon="1.04652">
        <ele>217.88</ele>
        <time>2013-04-07T08:50:36Z</time>
      </trkpt>
      <trkpt lat="44.46755" lon="1.04646">
        <ele>217.88</ele>
        <time>2013-04-07T08:50:37Z</time>
      </trkpt>
      <trkpt lat="44.46757" lon="1.0464">
        <ele>217.4</ele>
        <time>2013-04-07T08:50:38Z</time>
      </trkpt>
      <trkpt lat="44.46759" lon="1.04633">
        <ele>217.4</ele>
        <time>2013-04-07T08:50:39Z</time>
      </trkpt>
      <trkpt lat="44.46762" lon="1.04627">
        <ele>217.4</ele>
        <time>2013-04-07T08:50:40Z</time>
      </trkpt>
      <trkpt lat="44.46798" lon="1.0455">
        <ele>217.4</ele>
        <time>2013-04-07T08:50:53Z</time>
      </trkpt>
      <trkpt lat="44.468" lon="1.04544">
        <ele>217.4</ele>
        <time>2013-04-07T08:50:54Z</time>
      </trkpt>
      <trkpt lat="44.46803" lon="1.04531">
        <ele>216.91</ele>
        <time>2013-04-07T08:50:56Z</time>
      </trkpt>
      <trkpt lat="44.46804" lon="1.04525">
        <ele>216.91</ele>
        <time>2013-04-07T08:50:57Z</time>
      </trkpt>
      <trkpt lat="44.46804" lon="1.04518">
        <ele>216.91</ele>
        <time>2013-04-07T08:50:58Z</time>
      </trkpt>
      <trkpt lat="44.46803" lon="1.0449">
        <ele>216.43</ele>
        <time>2013-04-07T08:51:02Z</time>
      </trkpt>
      <trkpt lat="44.46805" lon="1.04483">
        <ele>216.43</ele>
        <time>2013-04-07T08:51:03Z</time>
      </trkpt>
      <trkpt lat="44.46808" lon="1.04478">
        <ele>216.43</ele>
        <time>2013-04-07T08:51:04Z</time>
      </trkpt>
      <trkpt lat="44.46811" lon="1.04472">
        <ele>216.43</ele>
        <time>2013-04-07T08:51:05Z</time>
      </trkpt>
      <trkpt lat="44.46815" lon="1.04467">
        <ele>216.43</ele>
        <time>2013-04-07T08:51:06Z</time>
      </trkpt>
      <trkpt lat="44.4689" lon="1.044">
        <ele>218.36</ele>
        <time>2013-04-07T08:51:23Z</time>
      </trkpt>
      <trkpt lat="44.46907" lon="1.04382">
        <ele>218.36</ele>
        <time>2013-04-07T08:51:27Z</time>
      </trkpt>
      <trkpt lat="44.4691" lon="1.04376">
        <ele>218.36</ele>
        <time>2013-04-07T08:51:28Z</time>
      </trkpt>
      <trkpt lat="44.46967" lon="1.04261">
        <ele>214.99</ele>
        <time>2013-04-07T08:51:45Z</time>
      </trkpt>
      <trkpt lat="44.47011" lon="1.04165">
        <ele>214.51</ele>
        <time>2013-04-07T08:51:58Z</time>
      </trkpt>
      <trkpt lat="44.47014" lon="1.04157">
        <ele>214.51</ele>
        <time>2013-04-07T08:51:59Z</time>
      </trkpt>
      <trkpt lat="44.47057" lon="1.0402">
        <ele>212.59</ele>
        <time>2013-04-07T08:52:15Z</time>
      </trkpt>
      <trkpt lat="44.47084" lon="1.03951">
        <ele>212.11</ele>
        <time>2013-04-07T08:52:24Z</time>
      </trkpt>
      <trkpt lat="44.47103" lon="1.03892">
        <ele>211.63</ele>
        <time>2013-04-07T08:52:31Z</time>
      </trkpt>
      <trkpt lat="44.47138" lon="1.0381">
        <ele>210.19</ele>
        <time>2013-04-07T08:52:42Z</time>
      </trkpt>
      <trkpt lat="44.47149" lon="1.0377">
        <ele>210.19</ele>
        <time>2013-04-07T08:52:47Z</time>
      </trkpt>
      <trkpt lat="44.47157" lon="1.03735">
        <ele>209.22</ele>
        <time>2013-04-07T08:52:51Z</time>
      </trkpt>
      <trkpt lat="44.47164" lon="1.037">
        <ele>207.3</ele>
        <time>2013-04-07T08:52:55Z</time>
      </trkpt>
      <trkpt lat="44.4719" lon="1.03597">
        <ele>199.61</ele>
        <time>2013-04-07T08:53:07Z</time>
      </trkpt>
      <trkpt lat="44.472" lon="1.03544">
        <ele>195.28</ele>
        <time>2013-04-07T08:53:13Z</time>
      </trkpt>
      <trkpt lat="44.47202" lon="1.03527">
        <ele>193.84</ele>
        <time>2013-04-07T08:53:15Z</time>
      </trkpt>
      <trkpt lat="44.47203" lon="1.03501">
        <ele>192.4</ele>
        <time>2013-04-07T08:53:18Z</time>
      </trkpt>
      <trkpt lat="44.47198" lon="1.03462">
        <ele>190.48</ele>
        <time>2013-04-07T08:53:22Z</time>
      </trkpt>
      <trkpt lat="44.4718" lon="1.03395">
        <ele>185.67</ele>
        <time>2013-04-07T08:53:30Z</time>
      </trkpt>
      <trkpt lat="44.47174" lon="1.03338">
        <ele>177.5</ele>
        <time>2013-04-07T08:53:41Z</time>
      </trkpt>
      <trkpt lat="44.47169" lon="1.03295">
        <ele>172.69</ele>
        <time>2013-04-07T08:53:51Z</time>
      </trkpt>
      <trkpt lat="44.4717" lon="1.03253">
        <ele>167.89</ele>
        <time>2013-04-07T08:54:00Z</time>
      </trkpt>
      <trkpt lat="44.47173" lon="1.0323">
        <ele>165.48</ele>
        <time>2013-04-07T08:54:03Z</time>
      </trkpt>
      <trkpt lat="44.47177" lon="1.03211">
        <ele>163.56</ele>
        <time>2013-04-07T08:54:07Z</time>
      </trkpt>
      <trkpt lat="44.47178" lon="1.03209">
        <ele>163.56</ele>
        <time>2013-04-07T08:54:18Z</time>
      </trkpt>
      <trkpt lat="44.47178" lon="1.0321">
        <ele>165</ele>
        <time>2013-04-07T08:54:43Z</time>
      </trkpt>
      <trkpt lat="44.47177" lon="1.03208">
        <ele>163.08</ele>
        <time>2013-04-07T08:54:57Z</time>
      </trkpt>
      <trkpt lat="44.47176" lon="1.03205">
        <ele>163.08</ele>
        <time>2013-04-07T08:54:58Z</time>
      </trkpt>
      <trkpt lat="44.47167" lon="1.03145">
        <ele>162.12</ele>
        <time>2013-04-07T08:55:10Z</time>
      </trkpt>
      <trkpt lat="44.47162" lon="1.0308">
        <ele>162.12</ele>
        <time>2013-04-07T08:55:23Z</time>
      </trkpt>
      <trkpt lat="44.47167" lon="1.03066">
        <ele>161.64</ele>
        <time>2013-04-07T08:55:26Z</time>
      </trkpt>
      <trkpt lat="44.47168" lon="1.03061">
        <ele>161.64</ele>
        <time>2013-04-07T08:55:27Z</time>
      </trkpt>
      <trkpt lat="44.47177" lon="1.03003">
        <ele>158.75</ele>
        <time>2013-04-07T08:55:34Z</time>
      </trkpt>
      <trkpt lat="44.47177" lon="1.02992">
        <ele>157.79</ele>
        <time>2013-04-07T08:55:35Z</time>
      </trkpt>
      <trkpt lat="44.47177" lon="1.02982">
        <ele>157.31</ele>
        <time>2013-04-07T08:55:36Z</time>
      </trkpt>
      <trkpt lat="44.47176" lon="1.02971">
        <ele>156.83</ele>
        <time>2013-04-07T08:55:37Z</time>
      </trkpt>
      <trkpt lat="44.47174" lon="1.0296">
        <ele>156.35</ele>
        <time>2013-04-07T08:55:38Z</time>
      </trkpt>
      <trkpt lat="44.47161" lon="1.02823">
        <ele>152.51</ele>
        <time>2013-04-07T08:55:50Z</time>
      </trkpt>
      <trkpt lat="44.47158" lon="1.02813">
        <ele>152.51</ele>
        <time>2013-04-07T08:55:51Z</time>
      </trkpt>
      <trkpt lat="44.47156" lon="1.02803">
        <ele>152.03</ele>
        <time>2013-04-07T08:55:52Z</time>
      </trkpt>
      <trkpt lat="44.47153" lon="1.02793">
        <ele>152.03</ele>
        <time>2013-04-07T08:55:53Z</time>
      </trkpt>
      <trkpt lat="44.4715" lon="1.02784">
        <ele>151.54</ele>
        <time>2013-04-07T08:55:54Z</time>
      </trkpt>
      <trkpt lat="44.47133" lon="1.02739">
        <ele>150.58</ele>
        <time>2013-04-07T08:55:59Z</time>
      </trkpt>
      <trkpt lat="44.47129" lon="1.02731">
        <ele>150.58</ele>
        <time>2013-04-07T08:56:00Z</time>
      </trkpt>
      <trkpt lat="44.47124" lon="1.02724">
        <ele>150.58</ele>
        <time>2013-04-07T08:56:01Z</time>
      </trkpt>
      <trkpt lat="44.47118" lon="1.0272">
        <ele>150.58</ele>
        <time>2013-04-07T08:56:02Z</time>
      </trkpt>
      <trkpt lat="44.47091" lon="1.02718">
        <ele>152.51</ele>
        <time>2013-04-07T08:56:07Z</time>
      </trkpt>
      <trkpt lat="44.47055" lon="1.02733">
        <ele>155.39</ele>
        <time>2013-04-07T08:56:20Z</time>
      </trkpt>
      <trkpt lat="44.47023" lon="1.02739">
        <ele>156.83</ele>
        <time>2013-04-07T08:56:31Z</time>
      </trkpt>
      <trkpt lat="44.47003" lon="1.02733">
        <ele>159.24</ele>
        <time>2013-04-07T08:56:41Z</time>
      </trkpt>
      <trkpt lat="44.46994" lon="1.02729">
        <ele>161.64</ele>
        <time>2013-04-07T08:56:47Z</time>
      </trkpt>
      <trkpt lat="44.46967" lon="1.02718">
        <ele>166.93</ele>
        <time>2013-04-07T08:57:04Z</time>
      </trkpt>
      <trkpt lat="44.46939" lon="1.02708">
        <ele>172.69</ele>
        <time>2013-04-07T08:57:21Z</time>
      </trkpt>
      <trkpt lat="44.46907" lon="1.02712">
        <ele>174.62</ele>
        <time>2013-04-07T08:57:39Z</time>
      </trkpt>
      <trkpt lat="44.46882" lon="1.02701">
        <ele>177.98</ele>
        <time>2013-04-07T08:57:54Z</time>
      </trkpt>
      <trkpt lat="44.4685" lon="1.02686">
        <ele>182.79</ele>
        <time>2013-04-07T08:58:10Z</time>
      </trkpt>
      <trkpt lat="44.46825" lon="1.02675">
        <ele>184.71</ele>
        <time>2013-04-07T08:58:24Z</time>
      </trkpt>
      <trkpt lat="44.46816" lon="1.02668">
        <ele>185.67</ele>
        <time>2013-04-07T08:58:30Z</time>
      </trkpt>
      <trkpt lat="44.46812" lon="1.02662">
        <ele>186.15</ele>
        <time>2013-04-07T08:58:34Z</time>
      </trkpt>
      <trkpt lat="44.46791" lon="1.02641">
        <ele>192.88</ele>
        <time>2013-04-07T08:58:51Z</time>
      </trkpt>
      <trkpt lat="44.46786" lon="1.02635">
        <ele>193.84</ele>
        <time>2013-04-07T08:58:56Z</time>
      </trkpt>
      <trkpt lat="44.46776" lon="1.02627">
        <ele>196.25</ele>
        <time>2013-04-07T08:59:04Z</time>
      </trkpt>
      <trkpt lat="44.46753" lon="1.02609">
        <ele>200.57</ele>
        <time>2013-04-07T08:59:21Z</time>
      </trkpt>
      <trkpt lat="44.46739" lon="1.02602">
        <ele>200.09</ele>
        <time>2013-04-07T08:59:35Z</time>
      </trkpt>
      <trkpt lat="44.46739" lon="1.02604">
        <ele>200.09</ele>
        <time>2013-04-07T08:59:59Z</time>
      </trkpt>
      <trkpt lat="44.46737" lon="1.02605">
        <ele>197.21</ele>
        <time>2013-04-07T09:00:25Z</time>
      </trkpt>
      <trkpt lat="44.46708" lon="1.02628">
        <ele>197.69</ele>
        <time>2013-04-07T09:00:37Z</time>
      </trkpt>
      <trkpt lat="44.46679" lon="1.02685">
        <ele>198.65</ele>
        <time>2013-04-07T09:00:51Z</time>
      </trkpt>
      <trkpt lat="44.46642" lon="1.02753">
        <ele>202.01</ele>
        <time>2013-04-07T09:01:07Z</time>
      </trkpt>
      <trkpt lat="44.46608" lon="1.02804">
        <ele>203.94</ele>
        <time>2013-04-07T09:01:22Z</time>
      </trkpt>
      <trkpt lat="44.46576" lon="1.02862">
        <ele>208.26</ele>
        <time>2013-04-07T09:01:38Z</time>
      </trkpt>
      <trkpt lat="44.46547" lon="1.02912">
        <ele>212.59</ele>
        <time>2013-04-07T09:01:52Z</time>
      </trkpt>
      <trkpt lat="44.4652" lon="1.02969">
        <ele>216.91</ele>
        <time>2013-04-07T09:02:08Z</time>
      </trkpt>
      <trkpt lat="44.46506" lon="1.03039">
        <ele>218.36</ele>
        <time>2013-04-07T09:02:24Z</time>
      </trkpt>
      <trkpt lat="44.46495" lon="1.03119">
        <ele>219.8</ele>
        <time>2013-04-07T09:02:41Z</time>
      </trkpt>
      <trkpt lat="44.46488" lon="1.03185">
        <ele>221.24</ele>
        <time>2013-04-07T09:02:55Z</time>
      </trkpt>
      <trkpt lat="44.46448" lon="1.03218">
        <ele>223.64</ele>
        <time>2013-04-07T09:03:07Z</time>
      </trkpt>
      <trkpt lat="44.46446" lon="1.03222">
        <ele>223.64</ele>
        <time>2013-04-07T09:03:08Z</time>
      </trkpt>
      <trkpt lat="44.46444" lon="1.03226">
        <ele>223.64</ele>
        <time>2013-04-07T09:03:09Z</time>
      </trkpt>
      <trkpt lat="44.46445" lon="1.0323">
        <ele>223.64</ele>
        <time>2013-04-07T09:03:10Z</time>
      </trkpt>
      <trkpt lat="44.46446" lon="1.03234">
        <ele>223.64</ele>
        <time>2013-04-07T09:03:11Z</time>
      </trkpt>
      <trkpt lat="44.46447" lon="1.03238">
        <ele>223.64</ele>
        <time>2013-04-07T09:03:12Z</time>
      </trkpt>
      <trkpt lat="44.46449" lon="1.03243">
        <ele>223.16</ele>
        <time>2013-04-07T09:03:13Z</time>
      </trkpt>
      <trkpt lat="44.46451" lon="1.03248">
        <ele>223.16</ele>
        <time>2013-04-07T09:03:14Z</time>
      </trkpt>
      <trkpt lat="44.46451" lon="1.03253">
        <ele>223.16</ele>
        <time>2013-04-07T09:03:15Z</time>
      </trkpt>
      <trkpt lat="44.4645" lon="1.03259">
        <ele>223.64</ele>
        <time>2013-04-07T09:03:16Z</time>
      </trkpt>
      <trkpt lat="44.46447" lon="1.03263">
        <ele>223.64</ele>
        <time>2013-04-07T09:03:17Z</time>
      </trkpt>
      <trkpt lat="44.46443" lon="1.03268">
        <ele>223.64</ele>
        <time>2013-04-07T09:03:18Z</time>
      </trkpt>
      <trkpt lat="44.46438" lon="1.03271">
        <ele>223.64</ele>
        <time>2013-04-07T09:03:19Z</time>
      </trkpt>
      <trkpt lat="44.46392" lon="1.03308">
        <ele>221.24</ele>
        <time>2013-04-07T09:03:29Z</time>
      </trkpt>
      <trkpt lat="44.46386" lon="1.0331">
        <ele>221.24</ele>
        <time>2013-04-07T09:03:30Z</time>
      </trkpt>
      <trkpt lat="44.46379" lon="1.03311">
        <ele>220.76</ele>
        <time>2013-04-07T09:03:31Z</time>
      </trkpt>
      <trkpt lat="44.46366" lon="1.03311">
        <ele>220.28</ele>
        <time>2013-04-07T09:03:33Z</time>
      </trkpt>
      <trkpt lat="44.46325" lon="1.03315">
        <ele>218.36</ele>
        <time>2013-04-07T09:03:39Z</time>
      </trkpt>
      <trkpt lat="44.46238" lon="1.03368">
        <ele>214.03</ele>
        <time>2013-04-07T09:03:52Z</time>
      </trkpt>
      <trkpt lat="44.46231" lon="1.03372">
        <ele>213.55</ele>
        <time>2013-04-07T09:03:53Z</time>
      </trkpt>
      <trkpt lat="44.46223" lon="1.03374">
        <ele>213.07</ele>
        <time>2013-04-07T09:03:54Z</time>
      </trkpt>
      <trkpt lat="44.46215" lon="1.03374">
        <ele>212.59</ele>
        <time>2013-04-07T09:03:55Z</time>
      </trkpt>
      <trkpt lat="44.46207" lon="1.03374">
        <ele>212.11</ele>
        <time>2013-04-07T09:03:56Z</time>
      </trkpt>
      <trkpt lat="44.46199" lon="1.03374">
        <ele>211.63</ele>
        <time>2013-04-07T09:03:57Z</time>
      </trkpt>
      <trkpt lat="44.46067" lon="1.03358">
        <ele>211.15</ele>
        <time>2013-04-07T09:04:13Z</time>
      </trkpt>
      <trkpt lat="44.46059" lon="1.03355">
        <ele>211.63</ele>
        <time>2013-04-07T09:04:14Z</time>
      </trkpt>
      <trkpt lat="44.46053" lon="1.03351">
        <ele>212.11</ele>
        <time>2013-04-07T09:04:15Z</time>
      </trkpt>
      <trkpt lat="44.46047" lon="1.03345">
        <ele>212.59</ele>
        <time>2013-04-07T09:04:16Z</time>
      </trkpt>
      <trkpt lat="44.46042" lon="1.0334">
        <ele>212.59</ele>
        <time>2013-04-07T09:04:17Z</time>
      </trkpt>
      <trkpt lat="44.46037" lon="1.03338">
        <ele>213.07</ele>
        <time>2013-04-07T09:04:18Z</time>
      </trkpt>
      <trkpt lat="44.46032" lon="1.0334">
        <ele>213.07</ele>
        <time>2013-04-07T09:04:19Z</time>
      </trkpt>
      <trkpt lat="44.46029" lon="1.03345">
        <ele>213.55</ele>
        <time>2013-04-07T09:04:20Z</time>
      </trkpt>
      <trkpt lat="44.46027" lon="1.03351">
        <ele>213.55</ele>
        <time>2013-04-07T09:04:21Z</time>
      </trkpt>
      <trkpt lat="44.46026" lon="1.03358">
        <ele>213.55</ele>
        <time>2013-04-07T09:04:22Z</time>
      </trkpt>
      <trkpt lat="44.46024" lon="1.03366">
        <ele>213.07</ele>
        <time>2013-04-07T09:04:23Z</time>
      </trkpt>
      <trkpt lat="44.46022" lon="1.03373">
        <ele>213.07</ele>
        <time>2013-04-07T09:04:24Z</time>
      </trkpt>
      <trkpt lat="44.46014" lon="1.03399">
        <ele>212.59</ele>
        <time>2013-04-07T09:04:27Z</time>
      </trkpt>
      <trkpt lat="44.46013" lon="1.03408">
        <ele>212.59</ele>
        <time>2013-04-07T09:04:28Z</time>
      </trkpt>
      <trkpt lat="44.46011" lon="1.03427">
        <ele>212.11</ele>
        <time>2013-04-07T09:04:30Z</time>
      </trkpt>
      <trkpt lat="44.46009" lon="1.03436">
        <ele>212.11</ele>
        <time>2013-04-07T09:04:31Z</time>
      </trkpt>
      <trkpt lat="44.46005" lon="1.03463">
        <ele>212.11</ele>
        <time>2013-04-07T09:04:34Z</time>
      </trkpt>
      <trkpt lat="44.46003" lon="1.03472">
        <ele>212.11</ele>
        <time>2013-04-07T09:04:35Z</time>
      </trkpt>
      <trkpt lat="44.46" lon="1.0348">
        <ele>212.11</ele>
        <time>2013-04-07T09:04:36Z</time>
      </trkpt>
      <trkpt lat="44.45987" lon="1.03525">
        <ele>211.15</ele>
        <time>2013-04-07T09:04:41Z</time>
      </trkpt>
      <trkpt lat="44.45986" lon="1.0357">
        <ele>212.11</ele>
        <time>2013-04-07T09:04:46Z</time>
      </trkpt>
      <trkpt lat="44.45985" lon="1.03666">
        <ele>213.07</ele>
        <time>2013-04-07T09:04:58Z</time>
      </trkpt>
      <trkpt lat="44.45978" lon="1.03712">
        <ele>211.15</ele>
        <time>2013-04-07T09:05:04Z</time>
      </trkpt>
      <trkpt lat="44.45973" lon="1.0376">
        <ele>209.22</ele>
        <time>2013-04-07T09:05:10Z</time>
      </trkpt>
      <trkpt lat="44.45977" lon="1.03795">
        <ele>208.26</ele>
        <time>2013-04-07T09:05:14Z</time>
      </trkpt>
      <trkpt lat="44.45995" lon="1.03845">
        <ele>207.3</ele>
        <time>2013-04-07T09:05:20Z</time>
      </trkpt>
      <trkpt lat="44.46014" lon="1.03867">
        <ele>207.3</ele>
        <time>2013-04-07T09:05:24Z</time>
      </trkpt>
      <trkpt lat="44.46102" lon="1.03902">
        <ele>207.78</ele>
        <time>2013-04-07T09:05:39Z</time>
      </trkpt>
      <trkpt lat="44.46177" lon="1.03924">
        <ele>204.42</ele>
        <time>2013-04-07T09:05:52Z</time>
      </trkpt>
      <trkpt lat="44.46206" lon="1.03933">
        <ele>204.42</ele>
        <time>2013-04-07T09:05:57Z</time>
      </trkpt>
      <trkpt lat="44.46275" lon="1.03965">
        <ele>208.26</ele>
        <time>2013-04-07T09:06:11Z</time>
      </trkpt>
      <trkpt lat="44.4628" lon="1.03967">
        <ele>208.74</ele>
        <time>2013-04-07T09:06:12Z</time>
      </trkpt>
      <trkpt lat="44.46317" lon="1.03974">
        <ele>211.63</ele>
        <time>2013-04-07T09:06:20Z</time>
      </trkpt>
      <trkpt lat="44.46322" lon="1.03975">
        <ele>212.11</ele>
        <time>2013-04-07T09:06:21Z</time>
      </trkpt>
      <trkpt lat="44.46382" lon="1.03983">
        <ele>215.47</ele>
        <time>2013-04-07T09:06:34Z</time>
      </trkpt>
      <trkpt lat="44.46465" lon="1.04001">
        <ele>214.03</ele>
        <time>2013-04-07T09:06:50Z</time>
      </trkpt>
      <trkpt lat="44.46469" lon="1.04002">
        <ele>214.51</ele>
        <time>2013-04-07T09:06:51Z</time>
      </trkpt>
      <trkpt lat="44.46496" lon="1.04012">
        <ele>216.43</ele>
        <time>2013-04-07T09:06:57Z</time>
      </trkpt>
      <trkpt lat="44.465" lon="1.04013">
        <ele>216.91</ele>
        <time>2013-04-07T09:06:58Z</time>
      </trkpt>
      <trkpt lat="44.46521" lon="1.04025">
        <ele>218.36</ele>
        <time>2013-04-07T09:07:05Z</time>
      </trkpt>
      <trkpt lat="44.46522" lon="1.04028">
        <ele>218.84</ele>
        <time>2013-04-07T09:07:06Z</time>
      </trkpt>
      <trkpt lat="44.4652" lon="1.04036">
        <ele>218.84</ele>
        <time>2013-04-07T09:07:08Z</time>
      </trkpt>
      <trkpt lat="44.4651" lon="1.04065">
        <ele>218.36</ele>
        <time>2013-04-07T09:07:14Z</time>
      </trkpt>
      <trkpt lat="44.46501" lon="1.04085">
        <ele>216.91</ele>
        <time>2013-04-07T09:07:18Z</time>
      </trkpt>
      <trkpt lat="44.46483" lon="1.04172">
        <ele>211.15</ele>
        <time>2013-04-07T09:07:31Z</time>
      </trkpt>
      <trkpt lat="44.46476" lon="1.04203">
        <ele>210.67</ele>
        <time>2013-04-07T09:07:35Z</time>
      </trkpt>
      <trkpt lat="44.46461" lon="1.0423">
        <ele>210.67</ele>
        <time>2013-04-07T09:07:41Z</time>
      </trkpt>
      <trkpt lat="44.46372" lon="1.04229">
        <ele>207.78</ele>
        <time>2013-04-07T09:07:54Z</time>
      </trkpt>
      <trkpt lat="44.46306" lon="1.04214">
        <ele>205.38</ele>
        <time>2013-04-07T09:08:04Z</time>
      </trkpt>
      <trkpt lat="44.46272" lon="1.04223">
        <ele>199.61</ele>
        <time>2013-04-07T09:08:09Z</time>
      </trkpt>
      <trkpt lat="44.46226" lon="1.04227">
        <ele>188.56</ele>
        <time>2013-04-07T09:08:16Z</time>
      </trkpt>
      <trkpt lat="44.46171" lon="1.04237">
        <ele>181.83</ele>
        <time>2013-04-07T09:08:22Z</time>
      </trkpt>
      <trkpt lat="44.46125" lon="1.04261">
        <ele>176.54</ele>
        <time>2013-04-07T09:08:28Z</time>
      </trkpt>
      <trkpt lat="44.46091" lon="1.04255">
        <ele>171.25</ele>
        <time>2013-04-07T09:08:33Z</time>
      </trkpt>
      <trkpt lat="44.46049" lon="1.04259">
        <ele>165</ele>
        <time>2013-04-07T09:08:39Z</time>
      </trkpt>
      <trkpt lat="44.46027" lon="1.04275">
        <ele>165</ele>
        <time>2013-04-07T09:08:43Z</time>
      </trkpt>
      <trkpt lat="44.46007" lon="1.04289">
        <ele>165.48</ele>
        <time>2013-04-07T09:08:47Z</time>
      </trkpt>
      <trkpt lat="44.4599" lon="1.04303">
        <ele>166.93</ele>
        <time>2013-04-07T09:08:51Z</time>
      </trkpt>
      <trkpt lat="44.45959" lon="1.04325">
        <ele>168.85</ele>
        <time>2013-04-07T09:08:59Z</time>
      </trkpt>
      <trkpt lat="44.45944" lon="1.04338">
        <ele>169.33</ele>
        <time>2013-04-07T09:09:03Z</time>
      </trkpt>
      <trkpt lat="44.45903" lon="1.044">
        <ele>171.25</ele>
        <time>2013-04-07T09:09:19Z</time>
      </trkpt>
      <trkpt lat="44.45865" lon="1.04444">
        <ele>171.73</ele>
        <time>2013-04-07T09:09:30Z</time>
      </trkpt>
      <trkpt lat="44.45836" lon="1.04471">
        <ele>169.33</ele>
        <time>2013-04-07T09:09:35Z</time>
      </trkpt>
      <trkpt lat="44.45829" lon="1.04475">
        <ele>169.33</ele>
        <time>2013-04-07T09:09:36Z</time>
      </trkpt>
      <trkpt lat="44.45822" lon="1.04478">
        <ele>168.85</ele>
        <time>2013-04-07T09:09:37Z</time>
      </trkpt>
      <trkpt lat="44.45815" lon="1.04479">
        <ele>168.85</ele>
        <time>2013-04-07T09:09:38Z</time>
      </trkpt>
      <trkpt lat="44.45808" lon="1.0448">
        <ele>168.85</ele>
        <time>2013-04-07T09:09:39Z</time>
      </trkpt>
      <trkpt lat="44.45801" lon="1.04479">
        <ele>169.33</ele>
        <time>2013-04-07T09:09:40Z</time>
      </trkpt>
      <trkpt lat="44.45795" lon="1.04479">
        <ele>168.85</ele>
        <time>2013-04-07T09:09:41Z</time>
      </trkpt>
      <trkpt lat="44.45751" lon="1.04473">
        <ele>173.66</ele>
        <time>2013-04-07T09:09:52Z</time>
      </trkpt>
      <trkpt lat="44.45713" lon="1.0447">
        <ele>181.35</ele>
        <time>2013-04-07T09:10:08Z</time>
      </trkpt>
      <trkpt lat="44.45683" lon="1.04469">
        <ele>185.19</ele>
        <time>2013-04-07T09:10:23Z</time>
      </trkpt>
      <trkpt lat="44.45653" lon="1.04468">
        <ele>190.96</ele>
        <time>2013-04-07T09:10:38Z</time>
      </trkpt>
      <trkpt lat="44.45617" lon="1.04467">
        <ele>195.28</ele>
        <time>2013-04-07T09:10:58Z</time>
      </trkpt>
      <trkpt lat="44.4559" lon="1.04464">
        <ele>198.65</ele>
        <time>2013-04-07T09:11:15Z</time>
      </trkpt>
      <trkpt lat="44.45572" lon="1.04475">
        <ele>201.53</ele>
        <time>2013-04-07T09:11:27Z</time>
      </trkpt>
      <trkpt lat="44.45571" lon="1.04481">
        <ele>202.01</ele>
        <time>2013-04-07T09:11:29Z</time>
      </trkpt>
      <trkpt lat="44.45573" lon="1.0452">
        <ele>205.38</ele>
        <time>2013-04-07T09:11:43Z</time>
      </trkpt>
      <trkpt lat="44.45577" lon="1.04556">
        <ele>208.26</ele>
        <time>2013-04-07T09:11:59Z</time>
      </trkpt>
      <trkpt lat="44.45576" lon="1.04556">
        <ele>207.3</ele>
        <time>2013-04-07T09:12:17Z</time>
      </trkpt>
      <trkpt lat="44.45577" lon="1.04554">
        <ele>208.26</ele>
        <time>2013-04-07T09:12:37Z</time>
      </trkpt>
      <trkpt lat="44.45575" lon="1.04558">
        <ele>208.74</ele>
        <time>2013-04-07T09:12:57Z</time>
      </trkpt>
      <trkpt lat="44.45576" lon="1.04588">
        <ele>208.74</ele>
        <time>2013-04-07T09:13:07Z</time>
      </trkpt>
      <trkpt lat="44.45556" lon="1.04631">
        <ele>210.19</ele>
        <time>2013-04-07T09:13:19Z</time>
      </trkpt>
      <trkpt lat="44.45512" lon="1.04649">
        <ele>211.63</ele>
        <time>2013-04-07T09:13:33Z</time>
      </trkpt>
      <trkpt lat="44.45473" lon="1.04615">
        <ele>213.55</ele>
        <time>2013-04-07T09:13:45Z</time>
      </trkpt>
      <trkpt lat="44.45469" lon="1.04613">
        <ele>213.55</ele>
        <time>2013-04-07T09:13:46Z</time>
      </trkpt>
      <trkpt lat="44.45465" lon="1.04612">
        <ele>213.55</ele>
        <time>2013-04-07T09:13:47Z</time>
      </trkpt>
      <trkpt lat="44.45457" lon="1.04611">
        <ele>213.55</ele>
        <time>2013-04-07T09:13:49Z</time>
      </trkpt>
      <trkpt lat="44.45453" lon="1.04613">
        <ele>214.03</ele>
        <time>2013-04-07T09:13:50Z</time>
      </trkpt>
      <trkpt lat="44.4545" lon="1.04616">
        <ele>214.03</ele>
        <time>2013-04-07T09:13:51Z</time>
      </trkpt>
      <trkpt lat="44.45447" lon="1.04621">
        <ele>214.51</ele>
        <time>2013-04-07T09:13:52Z</time>
      </trkpt>
      <trkpt lat="44.45444" lon="1.04626">
        <ele>214.99</ele>
        <time>2013-04-07T09:13:53Z</time>
      </trkpt>
      <trkpt lat="44.45442" lon="1.04632">
        <ele>214.99</ele>
        <time>2013-04-07T09:13:54Z</time>
      </trkpt>
      <trkpt lat="44.45424" lon="1.04676">
        <ele>214.51</ele>
        <time>2013-04-07T09:14:02Z</time>
      </trkpt>
      <trkpt lat="44.45422" lon="1.04682">
        <ele>214.03</ele>
        <time>2013-04-07T09:14:03Z</time>
      </trkpt>
      <trkpt lat="44.45421" lon="1.04688">
        <ele>214.03</ele>
        <time>2013-04-07T09:14:04Z</time>
      </trkpt>
      <trkpt lat="44.45421" lon="1.04694">
        <ele>214.03</ele>
        <time>2013-04-07T09:14:05Z</time>
      </trkpt>
      <trkpt lat="44.4542" lon="1.04699">
        <ele>213.55</ele>
        <time>2013-04-07T09:14:06Z</time>
      </trkpt>
      <trkpt lat="44.45419" lon="1.04704">
        <ele>213.55</ele>
        <time>2013-04-07T09:14:07Z</time>
      </trkpt>
      <trkpt lat="44.45417" lon="1.04708">
        <ele>213.07</ele>
        <time>2013-04-07T09:14:08Z</time>
      </trkpt>
      <trkpt lat="44.45414" lon="1.04712">
        <ele>213.07</ele>
        <time>2013-04-07T09:14:09Z</time>
      </trkpt>
      <trkpt lat="44.45411" lon="1.04715">
        <ele>213.07</ele>
        <time>2013-04-07T09:14:10Z</time>
      </trkpt>
      <trkpt lat="44.45407" lon="1.04718">
        <ele>213.07</ele>
        <time>2013-04-07T09:14:11Z</time>
      </trkpt>
      <trkpt lat="44.45391" lon="1.04731">
        <ele>213.07</ele>
        <time>2013-04-07T09:14:15Z</time>
      </trkpt>
      <trkpt lat="44.45389" lon="1.04736">
        <ele>213.07</ele>
        <time>2013-04-07T09:14:16Z</time>
      </trkpt>
      <trkpt lat="44.45387" lon="1.0474">
        <ele>212.59</ele>
        <time>2013-04-07T09:14:17Z</time>
      </trkpt>
      <trkpt lat="44.45387" lon="1.04757">
        <ele>211.63</ele>
        <time>2013-04-07T09:14:27Z</time>
      </trkpt>
      <trkpt lat="44.45388" lon="1.04759">
        <ele>211.63</ele>
        <time>2013-04-07T09:14:42Z</time>
      </trkpt>
    </trkseg>
  </trk>
</gpx>